PWSweather.com
Personal Weather Stations
Station Observations
HYDERMT7
Hyder Mountain, Clyde, NC 28721

Hyder MountainClyde, NC 28721

Lat: 35.562788, Lon: -82.934487

Elevation: 2790

Station Type: Ambient Weather WS 2080

Latest ConditionsUpdated 12:41:00 PM EST Wednesday, Feb 10, 2016
Currently Today's Max Today's Min Today's Average
Temperature 29.3°F-1.5°C 29.7°F-1.3°C 0.0°F-17.8°C 18.1°F-7.7°C
Dew Point 3.2°F-16.0°C 9.7°F-12.4°C -24.2°F-31.2°C 4.4°F-15.3°C
Winds 0.7 mph WSW1.1 kmh WSW 6.9 mph SW11.1 kmh SW - 0.6 mph 1.0 kmh
Wind Gusts 5.4 mph8.7 kmh 9.2 mph14.8 kmh - -
Humidity 32% 71% 29% 57%
Pressure 29.87 in1011.5 mb 29.88 in1011.9 mb 0.00 in0.0 mb -
Precipitation - 50.04 in1271.0 mm - -
Hour Temp Dew Point Humidity Winds Wind Gusts Pressure Precip Precip Rate Daily Precip Total
12:41 PM 29.3°F-1.5°C 3.2°F-16.0°C 32% 0.7 mph WSW1.1 kmh WSW 5.4 mph8.7 kmh 29.87 in1011.5 mb 0.00 in0.0 mm 0.00 in0.0 mm 50.04 in1271.0 mm
12:40 PM 29.5°F-1.4°C 3.3°F-15.9°C 32% 1.6 mph WSW2.6 kmh WSW 5.4 mph8.7 kmh 29.87 in1011.5 mb 0.00 in0.0 mm 0.00 in0.0 mm 50.04 in1271.0 mm
12:39 PM 29.5°F-1.4°C 3.3°F-15.9°C 32% 2.2 mph WSW3.5 kmh WSW 5.4 mph8.7 kmh 29.87 in1011.5 mb 0.00 in0.0 mm 0.00 in0.0 mm 50.04 in1271.0 mm
12:38 PM 29.5°F-1.4°C 3.3°F-15.9°C 32% 1.6 mph WSW2.6 kmh WSW 5.4 mph8.7 kmh 29.87 in1011.5 mb 0.00 in0.0 mm 0.00 in0.0 mm 50.04 in1271.0 mm
12:37 PM 29.3°F-1.5°C 3.2°F-16.0°C 32% 2.2 mph WSW3.5 kmh WSW 6.0 mph9.7 kmh 29.88 in1011.9 mb 0.00 in0.0 mm 0.00 in0.0 mm 50.04 in1271.0 mm
12:36 PM 29.1°F-1.6°C 3.0°F-16.1°C 32% 1.6 mph WSW2.6 kmh WSW 6.0 mph9.7 kmh 29.88 in1011.9 mb 0.00 in0.0 mm 0.00 in0.0 mm 50.04 in1271.0 mm
12:35 PM 29.1°F-1.6°C 3.0°F-16.1°C 32% 0.7 mph W1.1 kmh W 6.0 mph9.7 kmh 29.88 in1011.9 mb 0.00 in0.0 mm 0.00 in0.0 mm 50.04 in1271.0 mm
12:34 PM 28.9°F-1.7°C 2.8°F-16.2°C 32% 1.6 mph WSW2.6 kmh WSW 6.0 mph9.7 kmh 29.87 in1011.5 mb 0.00 in0.0 mm 0.00 in0.0 mm 50.04 in1271.0 mm
12:33 PM 28.9°F-1.7°C 2.8°F-16.2°C 32% 2.2 mph WSW3.5 kmh WSW 6.0 mph9.7 kmh 29.87 in1011.5 mb 0.00 in0.0 mm 0.00 in0.0 mm 50.04 in1271.0 mm
12:32 PM 28.9°F-1.7°C 2.8°F-16.2°C 32% 2.2 mph W3.5 kmh W 9.2 mph14.8 kmh 29.88 in1011.9 mb 0.00 in0.0 mm 0.00 in0.0 mm 50.04 in1271.0 mm
12:31 PM 29.1°F-1.6°C 3.0°F-16.1°C 32% 1.6 mph WNW2.6 kmh WNW 9.2 mph14.8 kmh 29.88 in1011.9 mb 0.00 in0.0 mm 0.00 in0.0 mm 50.04 in1271.0 mm
12:30 PM 29.3°F-1.5°C 3.2°F-16.0°C 32% 0.7 mph WNW1.1 kmh WNW 9.2 mph14.8 kmh 29.88 in1011.9 mb 0.00 in0.0 mm 0.00 in0.0 mm 50.04 in1271.0 mm
12:29 PM 29.5°F-1.4°C 3.3°F-15.9°C 32% 3.8 mph WNW6.1 kmh WNW 9.2 mph14.8 kmh 29.87 in1011.5 mb 0.00 in0.0 mm 0.00 in0.0 mm 50.04 in1271.0 mm
12:28 PM 29.5°F-1.4°C 3.3°F-15.9°C 32% 3.1 mph WNW5.0 kmh WNW 9.2 mph14.8 kmh 29.88 in1011.9 mb 0.00 in0.0 mm 0.00 in0.0 mm 50.04 in1271.0 mm
12:27 PM 29.5°F-1.4°C 4.0°F-15.6°C 33% 3.1 mph W5.0 kmh W 9.2 mph14.8 kmh 29.88 in1011.9 mb 0.00 in0.0 mm 0.00 in0.0 mm 50.04 in1271.0 mm
12:26 PM 28.9°F-1.7°C 3.5°F-15.8°C 33% 1.6 mph W2.6 kmh W 9.2 mph14.8 kmh 29.88 in1011.9 mb 0.00 in0.0 mm 0.00 in0.0 mm 50.04 in1271.0 mm
12:25 PM 28.6°F-1.9°C 2.5°F-16.4°C 32% 0.7 mph WSW1.1 kmh WSW 9.2 mph14.8 kmh 29.88 in1011.9 mb 0.00 in0.0 mm 0.00 in0.0 mm 50.04 in1271.0 mm
12:24 PM 28.6°F-1.9°C 2.5°F-16.4°C 32% 0.7 mph W1.1 kmh W 9.2 mph14.8 kmh 29.88 in1011.9 mb 0.00 in0.0 mm 0.00 in0.0 mm 50.04 in1271.0 mm
12:23 PM 28.6°F-1.9°C 2.5°F-16.4°C 32% Calm Calm 9.2 mph14.8 kmh 29.87 in1011.5 mb 0.00 in0.0 mm 0.00 in0.0 mm 50.04 in1271.0 mm
12:22 PM 29.1°F-1.6°C 3.0°F-16.1°C 32% 2.2 mph WSW3.5 kmh WSW 7.6 mph12.2 kmh 29.87 in1011.5 mb 0.00 in0.0 mm 0.00 in0.0 mm 50.04 in1271.0 mm
12:21 PM 29.3°F-1.5°C 3.2°F-16.0°C 32% 2.2 mph WSW3.5 kmh WSW 7.6 mph12.2 kmh 29.87 in1011.5 mb 0.00 in0.0 mm 0.00 in0.0 mm 50.04 in1271.0 mm
12:20 PM 29.3°F-1.5°C 3.2°F-16.0°C 32% 3.1 mph WSW5.0 kmh WSW 7.6 mph12.2 kmh 29.88 in1011.9 mb 0.00 in0.0 mm 0.00 in0.0 mm 50.04 in1271.0 mm
12:19 PM 29.5°F-1.4°C 3.3°F-15.9°C 32% 2.2 mph W3.5 kmh W 7.6 mph12.2 kmh 29.88 in1011.9 mb 0.00 in0.0 mm 0.00 in0.0 mm 50.04 in1271.0 mm
12:18 PM 29.7°F-1.3°C 4.1°F-15.5°C 33% 3.8 mph W6.1 kmh W 7.6 mph12.2 kmh 29.87 in1011.5 mb 0.00 in0.0 mm 0.00 in0.0 mm 50.04 in1271.0 mm
12:17 PM 29.7°F-1.3°C 4.1°F-15.5°C 33% 3.1 mph W5.0 kmh W 7.6 mph12.2 kmh 29.88 in1011.9 mb 0.00 in0.0 mm 0.00 in0.0 mm 50.04 in1271.0 mm
12:16 PM 29.5°F-1.4°C 4.0°F-15.6°C 33% 0.7 mph W1.1 kmh W 7.6 mph12.2 kmh 29.88 in1011.9 mb 0.00 in0.0 mm 0.00 in0.0 mm 50.04 in1271.0 mm
12:15 PM 29.3°F-1.5°C 3.8°F-15.7°C 33% 0.7 mph W1.1 kmh W 7.6 mph12.2 kmh 29.88 in1011.9 mb 0.00 in0.0 mm 0.00 in0.0 mm 50.04 in1271.0 mm
12:14 PM 29.1°F-1.6°C 4.3°F-15.4°C 34% 3.1 mph WSW5.0 kmh WSW 7.6 mph12.2 kmh 29.88 in1011.9 mb 0.00 in0.0 mm 0.00 in0.0 mm 50.04 in1271.0 mm
12:13 PM 28.9°F-1.7°C 4.1°F-15.5°C 34% 0.7 mph WSW1.1 kmh WSW 4.5 mph7.2 kmh 29.88 in1011.9 mb 0.00 in0.0 mm 0.00 in0.0 mm 50.04 in1271.0 mm
12:12 PM 28.6°F-1.9°C 3.8°F-15.7°C 34% 3.1 mph SW5.0 kmh SW 4.5 mph7.2 kmh 29.88 in1011.9 mb 0.00 in0.0 mm 0.00 in0.0 mm 50.04 in1271.0 mm
12:11 PM 28.2°F-2.1°C 0.8°F-17.3°C 30% 0.7 mph SW1.1 kmh SW 4.5 mph7.2 kmh 29.88 in1011.9 mb 0.00 in0.0 mm 0.00 in0.0 mm 50.04 in1271.0 mm
12:10 PM 27.7°F-2.4°C 0.4°F-17.6°C 30% 0.7 mph SW1.1 kmh SW 4.5 mph7.2 kmh 29.88 in1011.9 mb 0.00 in0.0 mm 0.00 in0.0 mm 50.04 in1271.0 mm
12:09 PM 27.3°F-2.6°C 0.0°F-17.8°C 30% 0.7 mph SW1.1 kmh SW 4.5 mph7.2 kmh 29.88 in1011.9 mb 0.00 in0.0 mm 0.00 in0.0 mm 50.04 in1271.0 mm
12:08 PM 27.1°F-2.7°C -0.1°F-17.8°C 30% 0.7 mph SW1.1 kmh SW 8.3 mph13.4 kmh 29.88 in1011.9 mb 0.00 in0.0 mm 0.00 in0.0 mm 50.04 in1271.0 mm
12:07 PM 27.0°F-2.8°C -0.3°F-17.9°C 30% Calm Calm 8.3 mph13.4 kmh 29.88 in1011.9 mb 0.00 in0.0 mm 0.00 in0.0 mm 50.04 in1271.0 mm
12:06 PM 26.4°F-3.1°C -0.1°F-17.8°C 31% 2.2 mph SW3.5 kmh SW 8.3 mph13.4 kmh 29.88 in1011.9 mb 0.00 in0.0 mm 0.00 in0.0 mm 50.04 in1271.0 mm
12:05 PM 26.2°F-3.2°C -0.2°F-17.9°C 31% 0.7 mph SW1.1 kmh SW 8.3 mph13.4 kmh 29.87 in1011.5 mb 0.00 in0.0 mm 0.00 in0.0 mm 50.04 in1271.0 mm
12:04 PM 26.2°F-3.2°C -0.2°F-17.9°C 31% 1.6 mph SW2.6 kmh SW 8.3 mph13.4 kmh 29.88 in1011.9 mb 0.00 in0.0 mm 0.00 in0.0 mm 50.04 in1271.0 mm
12:03 PM 26.2°F-3.2°C -0.2°F-17.9°C 31% 1.6 mph SW2.6 kmh SW 8.3 mph13.4 kmh 29.87 in1011.5 mb 0.00 in0.0 mm 0.00 in0.0 mm 50.04 in1271.0 mm
12:02 PM 26.6°F-3.0°C -1.3°F-18.5°C 29% 1.6 mph SW2.6 kmh SW 8.3 mph13.4 kmh 29.88 in1011.9 mb 0.00 in0.0 mm 0.00 in0.0 mm 50.04 in1271.0 mm
12:01 PM 26.6°F-3.0°C -1.3°F-18.5°C 29% 3.1 mph SW5.0 kmh SW 8.3 mph13.4 kmh 29.88 in1011.9 mb 0.00 in0.0 mm 0.00 in0.0 mm 50.04 in1271.0 mm
12:00 PM 26.6°F-3.0°C -1.3°F-18.5°C 29% Calm Calm 8.3 mph13.4 kmh 29.88 in1011.9 mb 0.00 in0.0 mm 0.00 in0.0 mm 50.04 in1271.0 mm
11:59 AM 27.0°F-2.8°C -1.0°F-18.3°C 29% 0.7 mph SW1.1 kmh SW 8.3 mph13.4 kmh 29.88 in1011.9 mb 0.00 in0.0 mm 0.00 in0.0 mm 50.04 in1271.0 mm
11:58 AM 27.7°F-2.4°C -0.4°F-18.0°C 29% 6.9 mph SW11.1 kmh SW 8.3 mph13.4 kmh 29.88 in1011.9 mb 0.00 in0.0 mm 0.00 in0.0 mm 50.04 in1271.0 mm
11:57 AM 27.5°F-2.5°C -0.5°F-18.1°C 29% 3.1 mph WSW5.0 kmh WSW 7.6 mph12.2 kmh 29.88 in1011.9 mb 0.00 in0.0 mm 0.00 in0.0 mm 50.04 in1271.0 mm
11:56 AM 27.3°F-2.6°C 0.0°F-17.8°C 30% Calm Calm 5.4 mph8.7 kmh 29.88 in1011.9 mb 0.00 in0.0 mm 0.00 in0.0 mm 0.00 in0.0 mm
11:55 AM 27.0°F-2.8°C -0.3°F-17.9°C 30% 2.2 mph S3.5 kmh S 6.0 mph9.7 kmh 29.88 in1011.9 mb 0.00 in0.0 mm 0.00 in0.0 mm 0.00 in0.0 mm
11:54 AM 26.8°F-2.9°C -0.4°F-18.0°C 30% 2.2 mph S3.5 kmh S 6.0 mph9.7 kmh 29.88 in1011.9 mb 0.00 in0.0 mm 0.00 in0.0 mm 0.00 in0.0 mm
11:53 AM 26.4°F-3.1°C -0.1°F-17.8°C 31% 1.6 mph S2.6 kmh S 6.0 mph9.7 kmh 29.88 in1011.9 mb 0.00 in0.0 mm 0.00 in0.0 mm 0.00 in0.0 mm
11:52 AM 26.2°F-3.2°C -0.2°F-17.9°C 31% Calm Calm 6.0 mph9.7 kmh 29.88 in1011.9 mb 0.00 in0.0 mm 0.00 in0.0 mm 0.00 in0.0 mm
11:51 AM 26.1°F-3.3°C -1.1°F-18.4°C 30% 1.6 mph S2.6 kmh S 6.0 mph9.7 kmh 29.88 in1011.9 mb 0.00 in0.0 mm 0.00 in0.0 mm 0.00 in0.0 mm
11:50 AM 26.1°F-3.3°C -1.1°F-18.4°C 30% 1.6 mph S2.6 kmh S 6.0 mph9.7 kmh 29.87 in1011.5 mb 0.00 in0.0 mm 0.00 in0.0 mm 0.00 in0.0 mm
11:49 AM 26.1°F-3.3°C -1.1°F-18.4°C 30% 1.6 mph S2.6 kmh S 6.0 mph9.7 kmh 29.88 in1011.9 mb 0.00 in0.0 mm 0.00 in0.0 mm 0.00 in0.0 mm
11:48 AM 26.1°F-3.3°C -1.1°F-18.4°C 30% 0.7 mph S1.1 kmh S 6.0 mph9.7 kmh 29.88 in1011.9 mb 0.00 in0.0 mm 0.00 in0.0 mm 0.00 in0.0 mm
11:47 AM 26.1°F-3.3°C -1.1°F-18.4°C 30% 1.6 mph S2.6 kmh S 6.0 mph9.7 kmh 29.88 in1011.9 mb 0.00 in0.0 mm 0.00 in0.0 mm 0.00 in0.0 mm
11:46 AM 26.6°F-3.0°C -1.3°F-18.5°C 29% 1.6 mph S2.6 kmh S 6.0 mph9.7 kmh 29.88 in1011.9 mb 0.00 in0.0 mm 0.00 in0.0 mm 0.00 in0.0 mm
11:45 AM 26.8°F-2.9°C -1.2°F-18.4°C 29% 2.2 mph S3.5 kmh S 6.0 mph9.7 kmh 29.88 in1011.9 mb 0.00 in0.0 mm 0.00 in0.0 mm 0.00 in0.0 mm
11:44 AM 27.0°F-2.8°C -1.0°F-18.3°C 29% 1.6 mph S2.6 kmh S 5.4 mph8.7 kmh 29.88 in1011.9 mb 0.00 in0.0 mm 0.00 in0.0 mm 0.00 in0.0 mm
11:43 AM 28.0°F-2.2°C -0.1°F-17.8°C 29% 0.7 mph SSE1.1 kmh SSE 5.4 mph8.7 kmh 29.88 in1011.9 mb 0.00 in0.0 mm 0.00 in0.0 mm 0.00 in0.0 mm
11:42 AM 28.0°F-2.2°C -0.1°F-17.8°C 29% 0.7 mph SE1.1 kmh SE 5.4 mph8.7 kmh 29.88 in1011.9 mb 0.00 in0.0 mm 0.00 in0.0 mm 0.00 in0.0 mm
11:41 AM 28.0°F-2.2°C -0.1°F-17.8°C 29% 0.7 mph SE1.1 kmh SE 5.4 mph8.7 kmh 29.88 in1011.9 mb 0.00 in0.0 mm 0.00 in0.0 mm 0.00 in0.0 mm
11:40 AM 28.0°F-2.2°C -0.1°F-17.8°C 29% 0.7 mph SE1.1 kmh SE 5.4 mph8.7 kmh 29.88 in1011.9 mb 0.00 in0.0 mm 0.00 in0.0 mm 0.00 in0.0 mm
11:39 AM 28.0°F-2.2°C -0.1°F-17.8°C 29% 0.7 mph SE1.1 kmh SE 5.4 mph8.7 kmh 29.88 in1011.9 mb 0.00 in0.0 mm 0.00 in0.0 mm 0.00 in0.0 mm
11:38 AM 28.0°F-2.2°C -0.1°F-17.8°C 29% 0.7 mph SE1.1 kmh SE 5.4 mph8.7 kmh 29.88 in1011.9 mb 0.00 in0.0 mm 0.00 in0.0 mm 0.00 in0.0 mm
11:37 AM 28.0°F-2.2°C -0.1°F-17.8°C 29% 0.7 mph SE1.1 kmh SE 5.4 mph8.7 kmh 29.87 in1011.5 mb 0.00 in0.0 mm 0.00 in0.0 mm 0.00 in0.0 mm
11:36 AM 28.0°F-2.2°C -0.1°F-17.8°C 29% 0.7 mph ESE1.1 kmh ESE 5.4 mph8.7 kmh 29.88 in1011.9 mb 0.00 in0.0 mm 0.00 in0.0 mm 0.00 in0.0 mm
11:35 AM 28.0°F-2.2°C -0.1°F-17.8°C 29% 0.7 mph ESE1.1 kmh ESE 5.4 mph8.7 kmh 29.88 in1011.9 mb 0.00 in0.0 mm 0.00 in0.0 mm 0.00 in0.0 mm
11:34 AM 28.2°F-2.1°C 0.1°F-17.7°C 29% 1.6 mph E2.6 kmh E 5.4 mph8.7 kmh 29.88 in1011.9 mb 0.00 in0.0 mm 0.00 in0.0 mm 0.00 in0.0 mm
11:33 AM 28.2°F-2.1°C 0.1°F-17.7°C 29% 1.6 mph ESE2.6 kmh ESE 5.4 mph8.7 kmh 29.88 in1011.9 mb 0.00 in0.0 mm 0.00 in0.0 mm 0.00 in0.0 mm
11:32 AM 28.2°F-2.1°C 0.8°F-17.3°C 30% 1.6 mph SE2.6 kmh SE 3.1 mph5.0 kmh 29.88 in1011.9 mb 0.00 in0.0 mm 0.00 in0.0 mm 0.00 in0.0 mm
11:31 AM 28.0°F-2.2°C -0.1°F-17.8°C 29% Calm Calm 2.2 mph3.5 kmh 29.88 in1011.9 mb 0.00 in0.0 mm 0.00 in0.0 mm 0.00 in0.0 mm
11:30 AM 28.0°F-2.2°C -0.1°F-17.8°C 29% Calm Calm 5.4 mph8.7 kmh 29.88 in1011.9 mb 0.00 in0.0 mm 0.00 in0.0 mm 0.00 in0.0 mm
11:29 AM 28.0°F-2.2°C -0.1°F-17.8°C 29% Calm Calm 5.4 mph8.7 kmh 29.88 in1011.9 mb 0.00 in0.0 mm 0.00 in0.0 mm 0.00 in0.0 mm
11:28 AM 28.0°F-2.2°C -0.1°F-17.8°C 29% Calm Calm 5.4 mph8.7 kmh 29.88 in1011.9 mb 0.00 in0.0 mm 0.00 in0.0 mm 0.00 in0.0 mm
11:27 AM 27.5°F-2.5°C -0.5°F-18.1°C 29% Calm Calm 5.4 mph8.7 kmh 29.88 in1011.9 mb 0.00 in0.0 mm 0.00 in0.0 mm 0.00 in0.0 mm
11:26 AM 27.5°F-2.5°C -0.5°F-18.1°C 29% Calm Calm 5.4 mph8.7 kmh 29.88 in1011.9 mb 0.00 in0.0 mm 0.00 in0.0 mm 0.00 in0.0 mm
11:25 AM 27.5°F-2.5°C -0.5°F-18.1°C 29% Calm Calm 5.4 mph8.7 kmh 29.88 in1011.9 mb 0.00 in0.0 mm 0.00 in0.0 mm 0.00 in0.0 mm
11:24 AM 27.5°F-2.5°C -0.5°F-18.1°C 29% Calm Calm 5.4 mph8.7 kmh 29.88 in1011.9 mb 0.00 in0.0 mm 0.00 in0.0 mm 0.00 in0.0 mm
11:23 AM 27.5°F-2.5°C -0.5°F-18.1°C 29% Calm Calm 5.4 mph8.7 kmh 29.88 in1011.9 mb 0.00 in0.0 mm 0.00 in0.0 mm 0.00 in0.0 mm
11:22 AM 27.7°F-2.4°C -0.4°F-18.0°C 29% 0.7 mph WNW1.1 kmh WNW 5.4 mph8.7 kmh 29.88 in1011.9 mb 0.00 in0.0 mm 0.00 in0.0 mm 0.00 in0.0 mm
11:21 AM 27.7°F-2.4°C -0.4°F-18.0°C 29% Calm Calm 5.4 mph8.7 kmh 29.88 in1011.9 mb 0.00 in0.0 mm 0.00 in0.0 mm 0.00 in0.0 mm
11:20 AM 28.0°F-2.2°C -0.1°F-17.8°C 29% 3.8 mph WNW6.1 kmh WNW 5.4 mph8.7 kmh 29.88 in1011.9 mb 0.00 in0.0 mm 0.00 in0.0 mm 0.00 in0.0 mm
11:19 AM 28.0°F-2.2°C 0.7°F-17.4°C 30% 1.6 mph WNW2.6 kmh WNW 3.8 mph6.1 kmh 29.88 in1011.9 mb 0.00 in0.0 mm 0.00 in0.0 mm 0.00 in0.0 mm
11:18 AM 27.9°F-2.3°C -0.2°F-17.9°C 29% Calm Calm 3.8 mph6.1 kmh 29.88 in1011.9 mb 0.00 in0.0 mm 0.00 in0.0 mm 0.00 in0.0 mm
11:17 AM 27.9°F-2.3°C -0.2°F-17.9°C 29% Calm Calm 3.8 mph6.1 kmh 29.88 in1011.9 mb 0.00 in0.0 mm 0.00 in0.0 mm 0.00 in0.0 mm
11:16 AM 28.0°F-2.2°C 0.7°F-17.4°C 30% 1.6 mph NNW2.6 kmh NNW 5.4 mph8.7 kmh 29.88 in1011.9 mb 0.00 in0.0 mm 0.00 in0.0 mm 0.00 in0.0 mm
11:15 AM 28.0°F-2.2°C 0.7°F-17.4°C 30% 0.7 mph NNW1.1 kmh NNW 5.4 mph8.7 kmh 29.88 in1011.9 mb 0.00 in0.0 mm 0.00 in0.0 mm 0.00 in0.0 mm
11:14 AM 27.9°F-2.3°C 0.5°F-17.5°C 30% 1.6 mph NE2.6 kmh NE 5.4 mph8.7 kmh 29.88 in1011.9 mb 0.00 in0.0 mm 0.00 in0.0 mm 0.00 in0.0 mm
11:13 AM 27.7°F-2.4°C 0.4°F-17.6°C 30% 0.7 mph ESE1.1 kmh ESE 5.4 mph8.7 kmh 29.87 in1011.5 mb 0.00 in0.0 mm 0.00 in0.0 mm 0.00 in0.0 mm
11:12 AM 27.3°F-2.6°C 0.7°F-17.4°C 31% 1.6 mph SE2.6 kmh SE 5.4 mph8.7 kmh 29.88 in1011.9 mb 0.00 in0.0 mm 0.00 in0.0 mm 0.00 in0.0 mm
11:11 AM 27.1°F-2.7°C 0.6°F-17.4°C 31% 1.6 mph SE2.6 kmh SE 6.9 mph11.1 kmh 29.88 in1011.9 mb 0.00 in0.0 mm 0.00 in0.0 mm 0.00 in0.0 mm
11:10 AM 26.6°F-3.0°C 0.1°F-17.7°C 31% 0.7 mph SE1.1 kmh SE 6.9 mph11.1 kmh 29.88 in1011.9 mb 0.00 in0.0 mm 0.00 in0.0 mm 0.00 in0.0 mm
11:09 AM 26.4°F-3.1°C 0.6°F-17.4°C 32% 1.6 mph SE2.6 kmh SE 6.9 mph11.1 kmh 29.88 in1011.9 mb 0.00 in0.0 mm 0.00 in0.0 mm 0.00 in0.0 mm
11:08 AM 26.2°F-3.2°C -0.2°F-17.9°C 31% Calm Calm 6.9 mph11.1 kmh 29.88 in1011.9 mb 0.00 in0.0 mm 0.00 in0.0 mm 0.00 in0.0 mm
11:07 AM 26.2°F-3.2°C -0.2°F-17.9°C 31% 0.7 mph SSE1.1 kmh SSE 6.9 mph11.1 kmh 29.88 in1011.9 mb 0.00 in0.0 mm 0.00 in0.0 mm 0.00 in0.0 mm
11:06 AM 26.2°F-3.2°C 0.5°F-17.5°C 32% 1.6 mph SSE2.6 kmh SSE 6.9 mph11.1 kmh 29.87 in1011.5 mb 0.00 in0.0 mm 0.00 in0.0 mm 0.00 in0.0 mm
11:05 AM 26.2°F-3.2°C 0.5°F-17.5°C 32% 2.2 mph SSE3.5 kmh SSE 6.9 mph11.1 kmh 29.88 in1011.9 mb 0.00 in0.0 mm 0.00 in0.0 mm 0.00 in0.0 mm
11:04 AM 26.4°F-3.1°C 0.6°F-17.4°C 32% 2.2 mph S3.5 kmh S 6.9 mph11.1 kmh 29.88 in1011.9 mb 0.00 in0.0 mm 0.00 in0.0 mm 0.00 in0.0 mm
11:03 AM 26.6°F-3.0°C 0.1°F-17.7°C 31% 2.2 mph S3.5 kmh S 6.9 mph11.1 kmh 29.88 in1011.9 mb 0.00 in0.0 mm 0.00 in0.0 mm 0.00 in0.0 mm
11:02 AM 26.8°F-2.9°C 0.3°F-17.6°C 31% 4.5 mph S7.2 kmh S 6.9 mph11.1 kmh 29.88 in1011.9 mb 0.00 in0.0 mm 0.00 in0.0 mm 0.00 in0.0 mm
11:01 AM 26.8°F-2.9°C 0.9°F-17.3°C 32% Calm Calm 5.4 mph8.7 kmh 29.88 in1011.9 mb 0.00 in0.0 mm 0.00 in0.0 mm 0.00 in0.0 mm
11:00 AM 26.8°F-2.9°C 0.9°F-17.3°C 32% Calm Calm 5.4 mph8.7 kmh 29.88 in1011.9 mb 0.00 in0.0 mm 0.00 in0.0 mm 0.00 in0.0 mm
10:59 AM 27.0°F-2.8°C 1.1°F-17.2°C 32% 1.6 mph WSW2.6 kmh WSW 5.4 mph8.7 kmh 29.88 in1011.9 mb 0.00 in0.0 mm 0.00 in0.0 mm 0.00 in0.0 mm
10:58 AM 26.6°F-3.0°C 0.8°F-17.3°C 32% 1.6 mph WSW2.6 kmh WSW 4.5 mph7.2 kmh 29.88 in1011.9 mb 0.00 in0.0 mm 0.00 in0.0 mm 0.00 in0.0 mm
10:57 AM 26.4°F-3.1°C 1.9°F-16.7°C 34% 0.7 mph SW1.1 kmh SW 4.5 mph7.2 kmh 29.88 in1011.9 mb 0.00 in0.0 mm 0.00 in0.0 mm 0.00 in0.0 mm
10:56 AM 26.2°F-3.2°C 1.8°F-16.8°C 34% 0.7 mph SW1.1 kmh SW 4.5 mph7.2 kmh 29.88 in1011.9 mb 0.00 in0.0 mm 0.00 in0.0 mm 0.00 in0.0 mm
10:55 AM 26.2°F-3.2°C 2.4°F-16.4°C 35% 1.6 mph SW2.6 kmh SW 4.5 mph7.2 kmh 29.88 in1011.9 mb 0.00 in0.0 mm 0.00 in0.0 mm 0.00 in0.0 mm
10:54 AM 26.1°F-3.3°C 2.2°F-16.6°C 35% 3.1 mph SW5.0 kmh SW 4.5 mph7.2 kmh 29.88 in1011.9 mb 0.00 in0.0 mm 0.00 in0.0 mm 0.00 in0.0 mm
10:53 AM 25.5°F-3.6°C 1.7°F-16.8°C 35% 1.6 mph WSW2.6 kmh WSW 4.5 mph7.2 kmh 29.88 in1011.9 mb 0.00 in0.0 mm 0.00 in0.0 mm 0.00 in0.0 mm
10:52 AM 25.5°F-3.6°C 1.7°F-16.8°C 35% 1.6 mph WSW2.6 kmh WSW 4.5 mph7.2 kmh 29.88 in1011.9 mb 0.00 in0.0 mm 0.00 in0.0 mm 0.00 in0.0 mm
10:51 AM 25.3°F-3.7°C 1.6°F-16.9°C 35% 0.7 mph WSW1.1 kmh WSW 4.5 mph7.2 kmh 29.88 in1011.9 mb 0.00 in0.0 mm 0.00 in0.0 mm 0.00 in0.0 mm
10:50 AM 25.3°F-3.7°C 1.6°F-16.9°C 35% 2.2 mph SW3.5 kmh SW 4.5 mph7.2 kmh 29.88 in1011.9 mb 0.00 in0.0 mm 0.00 in0.0 mm 0.00 in0.0 mm
10:49 AM 25.3°F-3.7°C 1.6°F-16.9°C 35% 1.6 mph SW2.6 kmh SW 4.5 mph7.2 kmh 29.88 in1011.9 mb 0.00 in0.0 mm 0.00 in0.0 mm 0.00 in0.0 mm
10:48 AM 25.3°F-3.7°C 1.6°F-16.9°C 35% 0.7 mph SW1.1 kmh SW 4.5 mph7.2 kmh 29.88 in1011.9 mb 0.00 in0.0 mm 0.00 in0.0 mm 0.00 in0.0 mm
10:47 AM 25.5°F-3.6°C 1.1°F-17.2°C 34% 0.7 mph SW1.1 kmh SW 4.5 mph7.2 kmh 29.88 in1011.9 mb 0.00 in0.0 mm 0.00 in0.0 mm 0.00 in0.0 mm
10:46 AM 25.7°F-3.5°C 1.9°F-16.7°C 35% 3.1 mph SW5.0 kmh SW 4.5 mph7.2 kmh 29.88 in1011.9 mb 0.00 in0.0 mm 0.00 in0.0 mm 0.00 in0.0 mm
10:45 AM 25.7°F-3.5°C 1.9°F-16.7°C 35% 2.2 mph SW3.5 kmh SW 4.5 mph7.2 kmh 29.87 in1011.5 mb 0.00 in0.0 mm 0.00 in0.0 mm 0.00 in0.0 mm
10:44 AM 25.7°F-3.5°C 1.9°F-16.7°C 35% Calm Calm 4.5 mph7.2 kmh 29.88 in1011.9 mb 0.00 in0.0 mm 0.00 in0.0 mm 0.00 in0.0 mm
10:43 AM 25.9°F-3.4°C 2.1°F-16.6°C 35% 1.6 mph S2.6 kmh S 4.5 mph7.2 kmh 29.87 in1011.5 mb 0.00 in0.0 mm 0.00 in0.0 mm 0.00 in0.0 mm
10:42 AM 25.9°F-3.4°C 2.1°F-16.6°C 35% 2.2 mph SSE3.5 kmh SSE 4.5 mph7.2 kmh 29.87 in1011.5 mb 0.00 in0.0 mm 0.00 in0.0 mm 0.00 in0.0 mm
10:41 AM 25.7°F-3.5°C 1.3°F-17.1°C 34% 2.2 mph ESE3.5 kmh ESE 3.8 mph6.1 kmh 29.88 in1011.9 mb 0.00 in0.0 mm 0.00 in0.0 mm 0.00 in0.0 mm
10:40 AM 25.5°F-3.6°C 1.1°F-17.2°C 34% Calm Calm 3.8 mph6.1 kmh 29.88 in1011.9 mb 0.00 in0.0 mm 0.00 in0.0 mm 0.00 in0.0 mm
10:39 AM 25.3°F-3.7°C 1.0°F-17.2°C 34% 3.1 mph ENE5.0 kmh ENE 3.8 mph6.1 kmh 29.87 in1011.5 mb 0.00 in0.0 mm 0.00 in0.0 mm 0.00 in0.0 mm
10:38 AM 25.2°F-3.8°C 0.2°F-17.7°C 33% 0.7 mph ENE1.1 kmh ENE 3.1 mph5.0 kmh 29.88 in1011.9 mb 0.00 in0.0 mm 0.00 in0.0 mm 0.00 in0.0 mm
10:37 AM 25.0°F-3.9°C 0.0°F-17.8°C 33% Calm Calm 3.1 mph5.0 kmh 29.88 in1011.9 mb 0.00 in0.0 mm 0.00 in0.0 mm 0.00 in0.0 mm
10:36 AM 25.2°F-3.8°C 0.2°F-17.7°C 33% Calm Calm 3.1 mph5.0 kmh 29.88 in1011.9 mb 0.00 in0.0 mm 0.00 in0.0 mm 0.00 in0.0 mm
10:35 AM 25.3°F-3.7°C 0.3°F-17.6°C 33% 0.7 mph E1.1 kmh E 3.1 mph5.0 kmh 29.88 in1011.9 mb 0.00 in0.0 mm 0.00 in0.0 mm 0.00 in0.0 mm
10:34 AM 26.4°F-3.1°C 1.3°F-17.1°C 33% 0.7 mph E1.1 kmh E 3.8 mph6.1 kmh 29.87 in1011.5 mb 0.00 in0.0 mm 0.00 in0.0 mm 0.00 in0.0 mm
10:33 AM 26.4°F-3.1°C 1.3°F-17.1°C 33% 0.7 mph ESE1.1 kmh ESE 4.5 mph7.2 kmh 29.88 in1011.9 mb 0.00 in0.0 mm 0.00 in0.0 mm 0.00 in0.0 mm
10:32 AM 26.4°F-3.1°C 1.3°F-17.1°C 33% 0.7 mph SE1.1 kmh SE 4.5 mph7.2 kmh 29.88 in1011.9 mb 0.00 in0.0 mm 0.00 in0.0 mm 0.00 in0.0 mm
10:31 AM 26.4°F-3.1°C 1.3°F-17.1°C 33% 0.7 mph SSE1.1 kmh SSE 4.5 mph7.2 kmh 29.87 in1011.5 mb 0.00 in0.0 mm 0.00 in0.0 mm 0.00 in0.0 mm
10:30 AM 26.4°F-3.1°C 1.3°F-17.1°C 33% 0.7 mph S1.1 kmh S 4.5 mph7.2 kmh 29.88 in1011.9 mb 0.00 in0.0 mm 0.00 in0.0 mm 0.00 in0.0 mm
10:29 AM 27.3°F-2.6°C 2.7°F-16.3°C 34% 1.6 mph SSW2.6 kmh SSW 4.5 mph7.2 kmh 29.88 in1011.9 mb 0.00 in0.0 mm 0.00 in0.0 mm 0.00 in0.0 mm
10:28 AM 27.3°F-2.6°C 2.7°F-16.3°C 34% 1.6 mph SW2.6 kmh SW 4.5 mph7.2 kmh 29.88 in1011.9 mb 0.00 in0.0 mm 0.00 in0.0 mm 0.00 in0.0 mm
10:27 AM 27.3°F-2.6°C 2.7°F-16.3°C 34% 1.6 mph SW2.6 kmh SW 4.5 mph7.2 kmh 29.88 in1011.9 mb 0.00 in0.0 mm 0.00 in0.0 mm 0.00 in0.0 mm
10:26 AM 27.3°F-2.6°C 2.7°F-16.3°C 34% 1.6 mph WSW2.6 kmh WSW 4.5 mph7.2 kmh 29.87 in1011.5 mb 0.00 in0.0 mm 0.00 in0.0 mm 0.00 in0.0 mm
10:25 AM 27.3°F-2.6°C 2.7°F-16.3°C 34% 1.6 mph WSW2.6 kmh WSW 4.5 mph7.2 kmh 29.88 in1011.9 mb 0.00 in0.0 mm 0.00 in0.0 mm 0.00 in0.0 mm
10:24 AM 27.5°F-2.5°C 2.9°F-16.2°C 34% 1.6 mph W2.6 kmh W 4.5 mph7.2 kmh 29.87 in1011.5 mb 0.00 in0.0 mm 0.00 in0.0 mm 0.00 in0.0 mm
10:23 AM 27.5°F-2.5°C 2.9°F-16.2°C 34% 3.1 mph W5.0 kmh W 4.5 mph7.2 kmh 29.87 in1011.5 mb 0.00 in0.0 mm 0.00 in0.0 mm 0.00 in0.0 mm
10:22 AM 27.3°F-2.6°C 3.3°F-15.9°C 35% 1.6 mph W2.6 kmh W 4.5 mph7.2 kmh 29.86 in1011.2 mb 0.00 in0.0 mm 0.00 in0.0 mm 0.00 in0.0 mm
10:21 AM 27.1°F-2.7°C 3.2°F-16.0°C 35% 0.7 mph W1.1 kmh W 4.5 mph7.2 kmh 29.87 in1011.5 mb 0.00 in0.0 mm 0.00 in0.0 mm 0.00 in0.0 mm
10:20 AM 27.3°F-2.6°C 3.9°F-15.6°C 36% 0.7 mph WSW1.1 kmh WSW 6.9 mph11.1 kmh 29.87 in1011.5 mb 0.00 in0.0 mm 0.00 in0.0 mm 0.00 in0.0 mm
10:19 AM 27.0°F-2.8°C 3.6°F-15.8°C 36% 2.2 mph WSW3.5 kmh WSW 6.9 mph11.1 kmh 29.87 in1011.5 mb 0.00 in0.0 mm 0.00 in0.0 mm 0.00 in0.0 mm
10:18 AM 26.2°F-3.2°C 3.6°F-15.8°C 37% 0.7 mph WSW1.1 kmh WSW 6.9 mph11.1 kmh 29.87 in1011.5 mb 0.00 in0.0 mm 0.00 in0.0 mm 0.00 in0.0 mm
10:17 AM 25.9°F-3.4°C 2.7°F-16.3°C 36% Calm Calm 6.9 mph11.1 kmh 29.86 in1011.2 mb 0.00 in0.0 mm 0.00 in0.0 mm 0.00 in0.0 mm
10:16 AM 25.5°F-3.6°C 2.3°F-16.5°C 36% Calm Calm 6.9 mph11.1 kmh 29.87 in1011.5 mb 0.00 in0.0 mm 0.00 in0.0 mm 0.00 in0.0 mm
10:15 AM 25.5°F-3.6°C 2.3°F-16.5°C 36% Calm Calm 6.9 mph11.1 kmh 29.86 in1011.2 mb 0.00 in0.0 mm 0.00 in0.0 mm 0.00 in0.0 mm
10:14 AM 25.3°F-3.7°C 2.2°F-16.6°C 36% 1.6 mph W2.6 kmh W 6.9 mph11.1 kmh 29.86 in1011.2 mb 0.00 in0.0 mm 0.00 in0.0 mm 0.00 in0.0 mm
10:13 AM 25.0°F-3.9°C 1.9°F-16.7°C 36% 1.6 mph W2.6 kmh W 6.9 mph11.1 kmh 29.86 in1011.2 mb 0.00 in0.0 mm 0.00 in0.0 mm 0.00 in0.0 mm
10:12 AM 25.0°F-3.9°C 1.9°F-16.7°C 36% 1.6 mph W2.6 kmh W 6.9 mph11.1 kmh 29.86 in1011.2 mb 0.00 in0.0 mm 0.00 in0.0 mm 0.00 in0.0 mm
10:11 AM 25.0°F-3.9°C 1.3°F-17.1°C 35% 1.6 mph W2.6 kmh W 6.9 mph11.1 kmh 29.86 in1011.2 mb 0.00 in0.0 mm 0.00 in0.0 mm 0.00 in0.0 mm
10:10 AM 24.8°F-4.0°C 1.1°F-17.2°C 35% 4.5 mph W7.2 kmh W 6.9 mph11.1 kmh 29.86 in1011.2 mb 0.00 in0.0 mm 0.00 in0.0 mm 0.00 in0.0 mm
10:09 AM 24.8°F-4.0°C 1.1°F-17.2°C 35% 4.5 mph W7.2 kmh W 6.9 mph11.1 kmh 29.86 in1011.2 mb 0.00 in0.0 mm 0.00 in0.0 mm 0.00 in0.0 mm
10:08 AM 24.8°F-4.0°C 1.1°F-17.2°C 35% 1.6 mph W2.6 kmh W 5.4 mph8.7 kmh 29.86 in1011.2 mb 0.00 in0.0 mm 0.00 in0.0 mm 0.00 in0.0 mm
10:07 AM 25.0°F-3.9°C 1.3°F-17.1°C 35% 3.1 mph WSW5.0 kmh WSW 5.4 mph8.7 kmh 29.87 in1011.5 mb 0.00 in0.0 mm 0.00 in0.0 mm 0.00 in0.0 mm
10:06 AM 25.2°F-3.8°C 1.4°F-17.0°C 35% Calm Calm 4.5 mph7.2 kmh 29.86 in1011.2 mb 0.00 in0.0 mm 0.00 in0.0 mm 0.00 in0.0 mm
10:05 AM 25.2°F-3.8°C 0.8°F-17.3°C 34% 2.2 mph WSW3.5 kmh WSW 4.5 mph7.2 kmh 29.86 in1011.2 mb 0.00 in0.0 mm 0.00 in0.0 mm 0.00 in0.0 mm
10:04 AM 25.2°F-3.8°C 0.8°F-17.3°C 34% 2.2 mph SW3.5 kmh SW 4.5 mph7.2 kmh 29.86 in1011.2 mb 0.00 in0.0 mm 0.00 in0.0 mm 0.00 in0.0 mm
10:03 AM 25.0°F-3.9°C 0.6°F-17.4°C 34% 1.6 mph SW2.6 kmh SW 4.5 mph7.2 kmh 29.86 in1011.2 mb 0.00 in0.0 mm 0.00 in0.0 mm 0.00 in0.0 mm
10:02 AM 25.2°F-3.8°C 0.8°F-17.3°C 34% 1.6 mph SW2.6 kmh SW 4.5 mph7.2 kmh 29.87 in1011.5 mb 0.00 in0.0 mm 0.00 in0.0 mm 0.00 in0.0 mm
10:01 AM 25.2°F-3.8°C 0.8°F-17.3°C 34% 1.6 mph SSW2.6 kmh SSW 4.5 mph7.2 kmh 29.87 in1011.5 mb 0.00 in0.0 mm 0.00 in0.0 mm 0.00 in0.0 mm
10:00 AM 25.5°F-3.6°C 1.1°F-17.2°C 34% 2.2 mph SSW3.5 kmh SSW 4.5 mph7.2 kmh 29.87 in1011.5 mb 0.00 in0.0 mm 0.00 in0.0 mm 0.00 in0.0 mm
09:59 AM 25.9°F-3.4°C 2.1°F-16.6°C 35% 2.2 mph SSW3.5 kmh SSW 4.5 mph7.2 kmh 29.87 in1011.5 mb 0.00 in0.0 mm 0.00 in0.0 mm 0.00 in0.0 mm
09:58 AM 26.2°F-3.2°C 2.4°F-16.4°C 35% 1.6 mph SW2.6 kmh SW 4.5 mph7.2 kmh 29.87 in1011.5 mb 0.00 in0.0 mm 0.00 in0.0 mm 0.00 in0.0 mm
09:57 AM 26.6°F-3.0°C 2.7°F-16.3°C 35% 1.6 mph SW2.6 kmh SW 4.5 mph7.2 kmh 29.86 in1011.2 mb 0.00 in0.0 mm 0.00 in0.0 mm 0.00 in0.0 mm
09:56 AM 26.6°F-3.0°C 3.3°F-15.9°C 36% 0.7 mph SW1.1 kmh SW 3.1 mph5.0 kmh 29.87 in1011.5 mb 0.00 in0.0 mm 0.00 in0.0 mm 0.00 in0.0 mm
09:55 AM 26.6°F-3.0°C 3.3°F-15.9°C 36% Calm Calm 3.1 mph5.0 kmh 29.86 in1011.2 mb 0.00 in0.0 mm 0.00 in0.0 mm 0.00 in0.0 mm
09:54 AM 26.6°F-3.0°C 3.9°F-15.6°C 37% 1.6 mph WSW2.6 kmh WSW 3.1 mph5.0 kmh 29.86 in1011.2 mb 0.00 in0.0 mm 0.00 in0.0 mm 0.00 in0.0 mm
09:53 AM 26.1°F-3.3°C 4.5°F-15.3°C 39% Calm Calm 1.6 mph2.6 kmh 29.87 in1011.5 mb 0.00 in0.0 mm 0.00 in0.0 mm 0.00 in0.0 mm
09:52 AM 26.1°F-3.3°C 4.5°F-15.3°C 39% Calm Calm 1.6 mph2.6 kmh 29.87 in1011.5 mb 0.00 in0.0 mm 0.00 in0.0 mm 0.00 in0.0 mm
09:51 AM 26.1°F-3.3°C 4.5°F-15.3°C 39% Calm Calm 1.6 mph2.6 kmh 29.86 in1011.2 mb 0.00 in0.0 mm 0.00 in0.0 mm 0.00 in0.0 mm
09:50 AM 26.1°F-3.3°C 4.5°F-15.3°C 39% Calm Calm 1.6 mph2.6 kmh 29.87 in1011.5 mb 0.00 in0.0 mm 0.00 in0.0 mm 0.00 in0.0 mm
09:49 AM 26.1°F-3.3°C 4.5°F-15.3°C 39% Calm Calm 1.6 mph2.6 kmh 29.86 in1011.2 mb 0.00 in0.0 mm 0.00 in0.0 mm 0.00 in0.0 mm
09:48 AM 25.5°F-3.6°C 3.5°F-15.8°C 38% 0.7 mph SW1.1 kmh SW 1.6 mph2.6 kmh 29.86 in1011.2 mb 0.00 in0.0 mm 0.00 in0.0 mm 0.00 in0.0 mm
09:47 AM 25.5°F-3.6°C 3.5°F-15.8°C 38% 0.7 mph SW1.1 kmh SW 1.6 mph2.6 kmh 29.87 in1011.5 mb 0.00 in0.0 mm 0.00 in0.0 mm 0.00 in0.0 mm
09:46 AM 25.3°F-3.7°C 3.3°F-15.9°C 38% Calm Calm 1.6 mph2.6 kmh 29.86 in1011.2 mb 0.00 in0.0 mm 0.00 in0.0 mm 0.00 in0.0 mm
09:45 AM 25.3°F-3.7°C 2.8°F-16.2°C 37% Calm Calm 1.6 mph2.6 kmh 29.86 in1011.2 mb 0.00 in0.0 mm 0.00 in0.0 mm 0.00 in0.0 mm
09:44 AM 25.3°F-3.7°C 2.8°F-16.2°C 37% Calm Calm 1.6 mph2.6 kmh 29.86 in1011.2 mb 0.00 in0.0 mm 0.00 in0.0 mm 0.00 in0.0 mm
09:43 AM 25.3°F-3.7°C 2.8°F-16.2°C 37% Calm Calm 1.6 mph2.6 kmh 29.87 in1011.5 mb 0.00 in0.0 mm 0.00 in0.0 mm 0.00 in0.0 mm
09:42 AM 25.3°F-3.7°C 2.8°F-16.2°C 37% Calm Calm 1.6 mph2.6 kmh 29.87 in1011.5 mb 0.00 in0.0 mm 0.00 in0.0 mm 0.00 in0.0 mm
09:41 AM 25.3°F-3.7°C 2.8°F-16.2°C 37% Calm Calm 1.6 mph2.6 kmh 29.86 in1011.2 mb 0.00 in0.0 mm 0.00 in0.0 mm 0.00 in0.0 mm
09:40 AM 25.3°F-3.7°C 2.8°F-16.2°C 37% Calm Calm 1.6 mph2.6 kmh 29.87 in1011.5 mb 0.00 in0.0 mm 0.00 in0.0 mm 0.00 in0.0 mm
09:39 AM 24.4°F-4.2°C 6.2°F-14.3°C 45% 0.7 mph SW1.1 kmh SW 1.6 mph2.6 kmh 29.87 in1011.5 mb 0.00 in0.0 mm 0.00 in0.0 mm 0.00 in0.0 mm
09:38 AM 24.4°F-4.2°C 6.2°F-14.3°C 45% 0.7 mph SW1.1 kmh SW 1.6 mph2.6 kmh 29.86 in1011.2 mb 0.00 in0.0 mm 0.00 in0.0 mm 0.00 in0.0 mm
09:37 AM 24.4°F-4.2°C 6.2°F-14.3°C 45% 0.7 mph SW1.1 kmh SW 1.6 mph2.6 kmh 29.87 in1011.5 mb 0.00 in0.0 mm 0.00 in0.0 mm 0.00 in0.0 mm
09:36 AM 24.4°F-4.2°C 6.2°F-14.3°C 45% 0.7 mph SW1.1 kmh SW 1.6 mph2.6 kmh 29.87 in1011.5 mb 0.00 in0.0 mm 0.00 in0.0 mm 0.00 in0.0 mm
09:35 AM 24.4°F-4.2°C 6.2°F-14.3°C 45% 0.7 mph SW1.1 kmh SW 1.6 mph2.6 kmh 29.88 in1011.9 mb 0.00 in0.0 mm 0.00 in0.0 mm 0.00 in0.0 mm
09:34 AM 24.4°F-4.2°C 6.2°F-14.3°C 45% 0.7 mph SW1.1 kmh SW 1.6 mph2.6 kmh 29.87 in1011.5 mb 0.00 in0.0 mm 0.00 in0.0 mm 0.00 in0.0 mm
09:33 AM 24.4°F-4.2°C 6.2°F-14.3°C 45% 0.7 mph SW1.1 kmh SW 1.6 mph2.6 kmh 29.87 in1011.5 mb 0.00 in0.0 mm 0.00 in0.0 mm 0.00 in0.0 mm
09:32 AM 24.4°F-4.2°C 6.2°F-14.3°C 45% 0.7 mph SW1.1 kmh SW 1.6 mph2.6 kmh 29.87 in1011.5 mb 0.00 in0.0 mm 0.00 in0.0 mm 0.00 in0.0 mm
09:31 AM 24.4°F-4.2°C 6.2°F-14.3°C 45% 0.7 mph SW1.1 kmh SW 1.6 mph2.6 kmh 29.87 in1011.5 mb 0.00 in0.0 mm 0.00 in0.0 mm 0.00 in0.0 mm
09:30 AM 24.4°F-4.2°C 6.2°F-14.3°C 45% 0.7 mph SW1.1 kmh SW 1.6 mph2.6 kmh 29.87 in1011.5 mb 0.00 in0.0 mm 0.00 in0.0 mm 0.00 in0.0 mm
09:29 AM 24.4°F-4.2°C 6.2°F-14.3°C 45% 0.7 mph SW1.1 kmh SW 1.6 mph2.6 kmh 29.87 in1011.5 mb 0.00 in0.0 mm 0.00 in0.0 mm 0.00 in0.0 mm
09:28 AM 24.4°F-4.2°C 6.2°F-14.3°C 45% 0.7 mph SW1.1 kmh SW 1.6 mph2.6 kmh 29.88 in1011.9 mb 0.00 in0.0 mm 0.00 in0.0 mm 0.00 in0.0 mm
09:27 AM 24.4°F-4.2°C 6.2°F-14.3°C 45% 0.7 mph SW1.1 kmh SW 1.6 mph2.6 kmh 29.88 in1011.9 mb 0.00 in0.0 mm 0.00 in0.0 mm 0.00 in0.0 mm
09:26 AM 24.4°F-4.2°C 6.2°F-14.3°C 45% 0.7 mph SW1.1 kmh SW 1.6 mph2.6 kmh 29.88 in1011.9 mb 0.00 in0.0 mm 0.00 in0.0 mm 0.00 in0.0 mm
09:25 AM 24.4°F-4.2°C 6.2°F-14.3°C 45% 0.7 mph SW1.1 kmh SW 2.2 mph3.5 kmh 29.87 in1011.5 mb 0.00 in0.0 mm 0.00 in0.0 mm 0.00 in0.0 mm
09:24 AM 24.4°F-4.2°C 6.2°F-14.3°C 45% 0.7 mph SW1.1 kmh SW 2.2 mph3.5 kmh 29.87 in1011.5 mb 0.00 in0.0 mm 0.00 in0.0 mm 0.00 in0.0 mm
09:23 AM 24.4°F-4.2°C 6.2°F-14.3°C 45% 0.7 mph SW1.1 kmh SW 2.2 mph3.5 kmh 29.87 in1011.5 mb 0.00 in0.0 mm 0.00 in0.0 mm 0.00 in0.0 mm
09:22 AM 24.4°F-4.2°C 6.2°F-14.3°C 45% 0.7 mph SW1.1 kmh SW 2.2 mph3.5 kmh 29.87 in1011.5 mb 0.00 in0.0 mm 0.00 in0.0 mm 0.00 in0.0 mm
09:21 AM 24.4°F-4.2°C 6.2°F-14.3°C 45% 0.7 mph SW1.1 kmh SW 2.2 mph3.5 kmh 29.86 in1011.2 mb 0.00 in0.0 mm 0.00 in0.0 mm 0.00 in0.0 mm
09:20 AM 24.4°F-4.2°C 6.2°F-14.3°C 45% 0.7 mph SW1.1 kmh SW 2.2 mph3.5 kmh 29.87 in1011.5 mb 0.00 in0.0 mm 0.00 in0.0 mm 0.00 in0.0 mm
09:19 AM 24.4°F-4.2°C 6.2°F-14.3°C 45% 0.7 mph SW1.1 kmh SW 2.2 mph3.5 kmh 29.87 in1011.5 mb 0.00 in0.0 mm 0.00 in0.0 mm 0.00 in0.0 mm
09:18 AM 24.4°F-4.2°C 6.2°F-14.3°C 45% 0.7 mph SW1.1 kmh SW 2.2 mph3.5 kmh 29.87 in1011.5 mb 0.00 in0.0 mm 0.00 in0.0 mm 0.00 in0.0 mm
09:17 AM 24.4°F-4.2°C 6.2°F-14.3°C 45% 0.7 mph SW1.1 kmh SW 2.2 mph3.5 kmh 29.86 in1011.2 mb 0.00 in0.0 mm 0.00 in0.0 mm 0.00 in0.0 mm
09:16 AM 24.4°F-4.2°C 6.2°F-14.3°C 45% 0.7 mph SW1.1 kmh SW 2.2 mph3.5 kmh 29.87 in1011.5 mb 0.00 in0.0 mm 0.00 in0.0 mm 0.00 in0.0 mm
09:15 AM 24.1°F-4.4°C 6.3°F-14.3°C 46% 0.7 mph SW1.1 kmh SW 2.2 mph3.5 kmh 29.87 in1011.5 mb 0.00 in0.0 mm 0.00 in0.0 mm 0.00 in0.0 mm
09:14 AM 24.1°F-4.4°C 6.3°F-14.3°C 46% 0.7 mph SW1.1 kmh SW 2.2 mph3.5 kmh 29.87 in1011.5 mb 0.00 in0.0 mm 0.00 in0.0 mm 0.00 in0.0 mm
09:13 AM 24.1°F-4.4°C 6.3°F-14.3°C 46% 0.7 mph SW1.1 kmh SW 2.2 mph3.5 kmh 29.87 in1011.5 mb 0.00 in0.0 mm 0.00 in0.0 mm 0.00 in0.0 mm
09:12 AM 24.1°F-4.4°C 6.3°F-14.3°C 46% 0.7 mph SW1.1 kmh SW 2.2 mph3.5 kmh 29.87 in1011.5 mb 0.00 in0.0 mm 0.00 in0.0 mm 0.00 in0.0 mm
09:11 AM 24.1°F-4.4°C 6.3°F-14.3°C 46% 0.7 mph SW1.1 kmh SW 2.2 mph3.5 kmh 29.87 in1011.5 mb 0.00 in0.0 mm 0.00 in0.0 mm 0.00 in0.0 mm
09:10 AM 13.1°F-10.5°C 2.9°F-16.2°C 63% 0.7 mph W1.1 kmh W 2.2 mph3.5 kmh 29.87 in1011.5 mb 0.00 in0.0 mm 0.00 in0.0 mm 0.00 in0.0 mm
09:09 AM 13.1°F-10.5°C 2.9°F-16.2°C 63% 0.7 mph W1.1 kmh W 2.2 mph3.5 kmh 29.87 in1011.5 mb 0.00 in0.0 mm 0.00 in0.0 mm 0.00 in0.0 mm
09:08 AM 13.1°F-10.5°C 2.9°F-16.2°C 63% 0.7 mph W1.1 kmh W 2.2 mph3.5 kmh 29.88 in1011.9 mb 0.00 in0.0 mm 0.00 in0.0 mm 0.00 in0.0 mm
09:07 AM 13.1°F-10.5°C 2.9°F-16.2°C 63% 0.7 mph W1.1 kmh W 2.2 mph3.5 kmh 29.87 in1011.5 mb 0.00 in0.0 mm 0.00 in0.0 mm 0.00 in0.0 mm
09:06 AM 13.1°F-10.5°C 2.9°F-16.2°C 63% 0.7 mph W1.1 kmh W 2.2 mph3.5 kmh 29.87 in1011.5 mb 0.00 in0.0 mm 0.00 in0.0 mm 0.00 in0.0 mm
09:05 AM 13.1°F-10.5°C 2.9°F-16.2°C 63% 0.7 mph W1.1 kmh W 2.2 mph3.5 kmh 29.87 in1011.5 mb 0.00 in0.0 mm 0.00 in0.0 mm 0.00 in0.0 mm
09:04 AM 13.1°F-10.5°C 2.9°F-16.2°C 63% 0.7 mph W1.1 kmh W 2.2 mph3.5 kmh 29.87 in1011.5 mb 0.00 in0.0 mm 0.00 in0.0 mm 0.00 in0.0 mm
09:03 AM 13.1°F-10.5°C 2.9°F-16.2°C 63% 0.7 mph W1.1 kmh W 2.2 mph3.5 kmh 29.87 in1011.5 mb 0.00 in0.0 mm 0.00 in0.0 mm 0.00 in0.0 mm
09:02 AM 13.1°F-10.5°C 2.9°F-16.2°C 63% 0.7 mph W1.1 kmh W 2.2 mph3.5 kmh 29.87 in1011.5 mb 0.00 in0.0 mm 0.00 in0.0 mm 0.00 in0.0 mm
09:01 AM 13.1°F-10.5°C 2.9°F-16.2°C 63% 0.7 mph W1.1 kmh W 2.2 mph3.5 kmh 29.87 in1011.5 mb 0.00 in0.0 mm 0.00 in0.0 mm 0.00 in0.0 mm
09:00 AM 13.1°F-10.5°C 2.9°F-16.2°C 63% 0.7 mph W1.1 kmh W 2.2 mph3.5 kmh 29.87 in1011.5 mb 0.00 in0.0 mm 0.00 in0.0 mm 0.00 in0.0 mm
08:59 AM 13.1°F-10.5°C 2.9°F-16.2°C 63% 0.7 mph W1.1 kmh W 2.2 mph3.5 kmh 29.87 in1011.5 mb 0.00 in0.0 mm 0.00 in0.0 mm 0.00 in0.0 mm
08:58 AM 13.1°F-10.5°C 2.9°F-16.2°C 63% 0.7 mph W1.1 kmh W 2.2 mph3.5 kmh 29.88 in1011.9 mb 0.00 in0.0 mm 0.00 in0.0 mm 0.00 in0.0 mm
08:57 AM 13.1°F-10.5°C 2.9°F-16.2°C 63% 0.7 mph W1.1 kmh W 2.2 mph3.5 kmh 29.87 in1011.5 mb 0.00 in0.0 mm 0.00 in0.0 mm 0.00 in0.0 mm
08:56 AM 13.1°F-10.5°C 2.9°F-16.2°C 63% 0.7 mph W1.1 kmh W 2.2 mph3.5 kmh 29.88 in1011.9 mb 0.00 in0.0 mm 0.00 in0.0 mm 0.00 in0.0 mm
08:55 AM 13.1°F-10.5°C 2.9°F-16.2°C 63% 0.7 mph W1.1 kmh W 2.2 mph3.5 kmh 29.87 in1011.5 mb 0.00 in0.0 mm 0.00 in0.0 mm 0.00 in0.0 mm
08:54 AM 13.1°F-10.5°C 2.9°F-16.2°C 63% 0.7 mph W1.1 kmh W 2.2 mph3.5 kmh 29.87 in1011.5 mb 0.00 in0.0 mm 0.00 in0.0 mm 0.00 in0.0 mm
08:53 AM 13.1°F-10.5°C 2.9°F-16.2°C 63% 0.7 mph W1.1 kmh W 2.2 mph3.5 kmh 29.88 in1011.9 mb 0.00 in0.0 mm 0.00 in0.0 mm 0.00 in0.0 mm
08:52 AM 13.1°F-10.5°C 2.9°F-16.2°C 63% 0.7 mph W1.1 kmh W 2.2 mph3.5 kmh 29.87 in1011.5 mb 0.00 in0.0 mm 0.00 in0.0 mm 0.00 in0.0 mm
08:51 AM 13.1°F-10.5°C 2.9°F-16.2°C 63% 0.7 mph W1.1 kmh W 2.2 mph3.5 kmh 29.87 in1011.5 mb 0.00 in0.0 mm 0.00 in0.0 mm 0.00 in0.0 mm
08:50 AM 13.1°F-10.5°C 2.9°F-16.2°C 63% 0.7 mph W1.1 kmh W 2.2 mph3.5 kmh 29.87 in1011.5 mb 0.00 in0.0 mm 0.00 in0.0 mm 0.00 in0.0 mm
08:49 AM 13.1°F-10.5°C 2.9°F-16.2°C 63% 0.7 mph W1.1 kmh W 2.2 mph3.5 kmh 29.87 in1011.5 mb 0.00 in0.0 mm 0.00 in0.0 mm 0.00 in0.0 mm
08:48 AM 13.1°F-10.5°C 2.9°F-16.2°C 63% 0.7 mph W1.1 kmh W 2.2 mph3.5 kmh 29.87 in1011.5 mb 0.00 in0.0 mm 0.00 in0.0 mm 0.00 in0.0 mm
08:47 AM 13.1°F-10.5°C 2.9°F-16.2°C 63% 0.7 mph W1.1 kmh W 2.2 mph3.5 kmh 29.86 in1011.2 mb 0.00 in0.0 mm 0.00 in0.0 mm 0.00 in0.0 mm
08:46 AM 13.1°F-10.5°C 2.9°F-16.2°C 63% 0.7 mph W1.1 kmh W 2.2 mph3.5 kmh 29.86 in1011.2 mb 0.00 in0.0 mm 0.00 in0.0 mm 0.00 in0.0 mm
08:45 AM 13.1°F-10.5°C 2.9°F-16.2°C 63% 0.7 mph W1.1 kmh W 2.2 mph3.5 kmh 29.87 in1011.5 mb 0.00 in0.0 mm 0.00 in0.0 mm 0.00 in0.0 mm
08:44 AM 13.1°F-10.5°C 2.9°F-16.2°C 63% 0.7 mph W1.1 kmh W 2.2 mph3.5 kmh 29.87 in1011.5 mb 0.00 in0.0 mm 0.00 in0.0 mm 0.00 in0.0 mm
08:43 AM 13.1°F-10.5°C 2.9°F-16.2°C 63% 0.7 mph W1.1 kmh W 2.2 mph3.5 kmh 29.87 in1011.5 mb 0.00 in0.0 mm 0.00 in0.0 mm 0.00 in0.0 mm
08:42 AM 13.1°F-10.5°C 2.9°F-16.2°C 63% 0.7 mph W1.1 kmh W 2.2 mph3.5 kmh 29.86 in1011.2 mb 0.00 in0.0 mm 0.00 in0.0 mm 0.00 in0.0 mm
08:41 AM 13.1°F-10.5°C 2.9°F-16.2°C 63% 0.7 mph W1.1 kmh W 2.2 mph3.5 kmh 29.87 in1011.5 mb 0.00 in0.0 mm 0.00 in0.0 mm 0.00 in0.0 mm
08:40 AM 13.1°F-10.5°C 2.9°F-16.2°C 63% 0.7 mph W1.1 kmh W 2.2 mph3.5 kmh 29.86 in1011.2 mb 0.00 in0.0 mm 0.00 in0.0 mm 0.00 in0.0 mm
08:39 AM 13.1°F-10.5°C 2.9°F-16.2°C 63% 0.7 mph W1.1 kmh W 2.2 mph3.5 kmh 29.86 in1011.2 mb 0.00 in0.0 mm 0.00 in0.0 mm 0.00 in0.0 mm
08:38 AM 13.1°F-10.5°C 2.9°F-16.2°C 63% 0.7 mph W1.1 kmh W 2.2 mph3.5 kmh 29.87 in1011.5 mb 0.00 in0.0 mm 0.00 in0.0 mm 0.00 in0.0 mm
08:37 AM 13.1°F-10.5°C 2.9°F-16.2°C 63% 0.7 mph W1.1 kmh W 2.2 mph3.5 kmh 29.87 in1011.5 mb 0.00 in0.0 mm 0.00 in0.0 mm 0.00 in0.0 mm
08:36 AM 13.1°F-10.5°C 2.9°F-16.2°C 63% 0.7 mph W1.1 kmh W 2.2 mph3.5 kmh 29.86 in1011.2 mb 0.00 in0.0 mm 0.00 in0.0 mm 0.00 in0.0 mm
08:35 AM 13.1°F-10.5°C 2.9°F-16.2°C 63% 0.7 mph W1.1 kmh W 2.2 mph3.5 kmh 29.86 in1011.2 mb 0.00 in0.0 mm 0.00 in0.0 mm 0.00 in0.0 mm
08:34 AM 13.1°F-10.5°C 2.9°F-16.2°C 63% 0.7 mph W1.1 kmh W 2.2 mph3.5 kmh 29.86 in1011.2 mb 0.00 in0.0 mm 0.00 in0.0 mm 0.00 in0.0 mm
08:33 AM 13.1°F-10.5°C 2.9°F-16.2°C 63% 0.7 mph W1.1 kmh W 2.2 mph3.5 kmh 29.86 in1011.2 mb 0.00 in0.0 mm 0.00 in0.0 mm 0.00 in0.0 mm
08:32 AM 13.1°F-10.5°C 2.9°F-16.2°C 63% 0.7 mph W1.1 kmh W 2.2 mph3.5 kmh 29.86 in1011.2 mb 0.00 in0.0 mm 0.00 in0.0 mm 0.00 in0.0 mm
08:31 AM 13.1°F-10.5°C 2.9°F-16.2°C 63% 0.7 mph W1.1 kmh W 2.2 mph3.5 kmh 29.86 in1011.2 mb 0.00 in0.0 mm 0.00 in0.0 mm 0.00 in0.0 mm
08:30 AM 13.1°F-10.5°C 2.9°F-16.2°C 63% 0.7 mph W1.1 kmh W 2.2 mph3.5 kmh 29.86 in1011.2 mb 0.00 in0.0 mm 0.00 in0.0 mm 0.00 in0.0 mm
08:29 AM 13.1°F-10.5°C 2.9°F-16.2°C 63% 0.7 mph W1.1 kmh W 2.2 mph3.5 kmh 29.86 in1011.2 mb 0.00 in0.0 mm 0.00 in0.0 mm 0.00 in0.0 mm
08:28 AM 13.1°F-10.5°C 2.9°F-16.2°C 63% 0.7 mph W1.1 kmh W 2.2 mph3.5 kmh 29.86 in1011.2 mb 0.00 in0.0 mm 0.00 in0.0 mm 0.00 in0.0 mm
08:27 AM 13.1°F-10.5°C 2.9°F-16.2°C 63% 0.7 mph W1.1 kmh W 2.2 mph3.5 kmh 29.86 in1011.2 mb 0.00 in0.0 mm 0.00 in0.0 mm 0.00 in0.0 mm
08:26 AM 13.1°F-10.5°C 2.9°F-16.2°C 63% 0.7 mph W1.1 kmh W 2.2 mph3.5 kmh 29.86 in1011.2 mb 0.00 in0.0 mm 0.00 in0.0 mm 0.00 in0.0 mm
08:25 AM 13.1°F-10.5°C 2.9°F-16.2°C 63% 0.7 mph W1.1 kmh W 2.2 mph3.5 kmh 29.86 in1011.2 mb 0.00 in0.0 mm 0.00 in0.0 mm 0.00 in0.0 mm
08:24 AM 13.1°F-10.5°C 2.9°F-16.2°C 63% 0.7 mph W1.1 kmh W 2.2 mph3.5 kmh 29.86 in1011.2 mb 0.00 in0.0 mm 0.00 in0.0 mm 0.00 in0.0 mm
08:23 AM 13.1°F-10.5°C 2.9°F-16.2°C 63% 0.7 mph W1.1 kmh W 2.2 mph3.5 kmh 29.86 in1011.2 mb 0.00 in0.0 mm 0.00 in0.0 mm 0.00 in0.0 mm
08:22 AM 13.1°F-10.5°C 2.9°F-16.2°C 63% 0.7 mph W1.1 kmh W 2.2 mph3.5 kmh 29.86 in1011.2 mb 0.00 in0.0 mm 0.00 in0.0 mm 0.00 in0.0 mm
08:21 AM 13.1°F-10.5°C 2.9°F-16.2°C 63% 0.7 mph W1.1 kmh W 2.2 mph3.5 kmh 29.86 in1011.2 mb 0.00 in0.0 mm 0.00 in0.0 mm 0.00 in0.0 mm
08:20 AM 13.1°F-10.5°C 2.9°F-16.2°C 63% 0.7 mph W1.1 kmh W 2.2 mph3.5 kmh 29.86 in1011.2 mb 0.00 in0.0 mm 0.00 in0.0 mm 0.00 in0.0 mm
08:19 AM 13.1°F-10.5°C 2.9°F-16.2°C 63% 0.7 mph W1.1 kmh W 2.2 mph3.5 kmh 29.86 in1011.2 mb 0.00 in0.0 mm 0.00 in0.0 mm 0.00 in0.0 mm
08:18 AM 13.1°F-10.5°C 2.9°F-16.2°C 63% 0.7 mph W1.1 kmh W 2.2 mph3.5 kmh 29.85 in1010.8 mb 0.00 in0.0 mm 0.00 in0.0 mm 0.00 in0.0 mm
08:17 AM 13.1°F-10.5°C 2.9°F-16.2°C 63% 0.7 mph W1.1 kmh W 2.2 mph3.5 kmh 29.85 in1010.8 mb 0.00 in0.0 mm 0.00 in0.0 mm 0.00 in0.0 mm
08:16 AM 13.1°F-10.5°C 2.9°F-16.2°C 63% 0.7 mph W1.1 kmh W 2.2 mph3.5 kmh 29.86 in1011.2 mb 0.00 in0.0 mm 0.00 in0.0 mm 0.00 in0.0 mm
08:15 AM 13.1°F-10.5°C 2.9°F-16.2°C 63% 0.7 mph W1.1 kmh W 2.2 mph3.5 kmh 29.86 in1011.2 mb 0.00 in0.0 mm 0.00 in0.0 mm 0.00 in0.0 mm
08:14 AM 13.1°F-10.5°C 2.9°F-16.2°C 63% 0.7 mph W1.1 kmh W 2.2 mph3.5 kmh 29.86 in1011.2 mb 0.00 in0.0 mm 0.00 in0.0 mm 0.00 in0.0 mm
08:13 AM 13.1°F-10.5°C 2.9°F-16.2°C 63% 0.7 mph W1.1 kmh W 2.2 mph3.5 kmh 29.86 in1011.2 mb 0.00 in0.0 mm 0.00 in0.0 mm 0.00 in0.0 mm
08:12 AM 13.1°F-10.5°C 2.9°F-16.2°C 63% 0.7 mph W1.1 kmh W 2.2 mph3.5 kmh 29.85 in1010.8 mb 0.00 in0.0 mm 0.00 in0.0 mm 0.00 in0.0 mm
08:11 AM 13.1°F-10.5°C 2.9°F-16.2°C 63% 0.7 mph W1.1 kmh W 2.2 mph3.5 kmh 29.85 in1010.8 mb 0.00 in0.0 mm 0.00 in0.0 mm 0.00 in0.0 mm
08:10 AM 13.1°F-10.5°C 2.9°F-16.2°C 63% 0.7 mph W1.1 kmh W 2.2 mph3.5 kmh 29.86 in1011.2 mb 0.00 in0.0 mm 0.00 in0.0 mm 0.00 in0.0 mm
08:09 AM 13.1°F-10.5°C 2.9°F-16.2°C 63% 0.7 mph W1.1 kmh W 2.2 mph3.5 kmh 29.85 in1010.8 mb 0.00 in0.0 mm 0.00 in0.0 mm 0.00 in0.0 mm
08:08 AM 13.1°F-10.5°C 2.9°F-16.2°C 63% 0.7 mph W1.1 kmh W 2.2 mph3.5 kmh 29.86 in1011.2 mb 0.00 in0.0 mm 0.00 in0.0 mm 0.00 in0.0 mm
08:07 AM 13.1°F-10.5°C 2.9°F-16.2°C 63% 0.7 mph W1.1 kmh W 2.2 mph3.5 kmh 29.86 in1011.2 mb 0.00 in0.0 mm 0.00 in0.0 mm 0.00 in0.0 mm
08:06 AM 13.1°F-10.5°C 2.9°F-16.2°C 63% 0.7 mph W1.1 kmh W 2.2 mph3.5 kmh 29.86 in1011.2 mb 0.00 in0.0 mm 0.00 in0.0 mm 0.00 in0.0 mm
08:05 AM 13.1°F-10.5°C 2.9°F-16.2°C 63% 0.7 mph W1.1 kmh W 2.2 mph3.5 kmh 29.86 in1011.2 mb 0.00 in0.0 mm 0.00 in0.0 mm 0.00 in0.0 mm
08:04 AM 13.1°F-10.5°C 2.9°F-16.2°C 63% 0.7 mph W1.1 kmh W 2.2 mph3.5 kmh 29.86 in1011.2 mb 0.00 in0.0 mm 0.00 in0.0 mm 0.00 in0.0 mm
08:03 AM 13.1°F-10.5°C 2.9°F-16.2°C 63% 0.7 mph W1.1 kmh W 2.2 mph3.5 kmh 29.86 in1011.2 mb 0.00 in0.0 mm 0.00 in0.0 mm 0.00 in0.0 mm
08:02 AM 13.1°F-10.5°C 2.9°F-16.2°C 63% 0.7 mph W1.1 kmh W 2.2 mph3.5 kmh 29.86 in1011.2 mb 0.00 in0.0 mm 0.00 in0.0 mm 0.00 in0.0 mm
08:01 AM 13.1°F-10.5°C 2.9°F-16.2°C 63% 0.7 mph W1.1 kmh W 2.2 mph3.5 kmh 29.86 in1011.2 mb 0.00 in0.0 mm 0.00 in0.0 mm 0.00 in0.0 mm
08:00 AM 13.1°F-10.5°C 2.9°F-16.2°C 63% 0.7 mph W1.1 kmh W 2.2 mph3.5 kmh 29.86 in1011.2 mb 0.00 in0.0 mm 0.00 in0.0 mm 0.00 in0.0 mm
07:59 AM 13.1°F-10.5°C 2.9°F-16.2°C 63% 0.7 mph W1.1 kmh W 2.2 mph3.5 kmh 29.86 in1011.2 mb 0.00 in0.0 mm 0.00 in0.0 mm 0.00 in0.0 mm
07:58 AM 13.1°F-10.5°C 2.9°F-16.2°C 63% 0.7 mph W1.1 kmh W 2.2 mph3.5 kmh 29.86 in1011.2 mb 0.00 in0.0 mm 0.00 in0.0 mm 0.00 in0.0 mm
07:57 AM 13.1°F-10.5°C 2.9°F-16.2°C 63% 0.7 mph W1.1 kmh W 2.2 mph3.5 kmh 29.85 in1010.8 mb 0.00 in0.0 mm 0.00 in0.0 mm 0.00 in0.0 mm
07:56 AM 13.1°F-10.5°C 2.9°F-16.2°C 63% 0.7 mph W1.1 kmh W 2.2 mph3.5 kmh 29.85 in1010.8 mb 0.00 in0.0 mm 0.00 in0.0 mm 0.00 in0.0 mm
07:55 AM 13.1°F-10.5°C 2.9°F-16.2°C 63% 0.7 mph W1.1 kmh W 2.2 mph3.5 kmh 29.86 in1011.2 mb 0.00 in0.0 mm 0.00 in0.0 mm 0.00 in0.0 mm
07:54 AM 13.1°F-10.5°C 2.9°F-16.2°C 63% 0.7 mph W1.1 kmh W 2.2 mph3.5 kmh 29.86 in1011.2 mb 0.00 in0.0 mm 0.00 in0.0 mm 0.00 in0.0 mm
07:53 AM 13.1°F-10.5°C 2.9°F-16.2°C 63% 0.7 mph W1.1 kmh W 2.2 mph3.5 kmh 29.86 in1011.2 mb 0.00 in0.0 mm 0.00 in0.0 mm 0.00 in0.0 mm
07:52 AM 13.1°F-10.5°C 2.9°F-16.2°C 63% 0.7 mph W1.1 kmh W 2.2 mph3.5 kmh 29.86 in1011.2 mb 0.00 in0.0 mm 0.00 in0.0 mm 0.00 in0.0 mm
07:51 AM 13.1°F-10.5°C 2.9°F-16.2°C 63% 0.7 mph W1.1 kmh W 2.2 mph3.5 kmh 29.85 in1010.8 mb 0.00 in0.0 mm 0.00 in0.0 mm 0.00 in0.0 mm
07:50 AM 13.1°F-10.5°C 2.9°F-16.2°C 63% 0.7 mph W1.1 kmh W 2.2 mph3.5 kmh 29.86 in1011.2 mb 0.00 in0.0 mm 0.00 in0.0 mm 0.00 in0.0 mm
07:49 AM 13.1°F-10.5°C 2.9°F-16.2°C 63% 0.7 mph W1.1 kmh W 2.2 mph3.5 kmh 29.86 in1011.2 mb 0.00 in0.0 mm 0.00 in0.0 mm 0.00 in0.0 mm
07:48 AM 13.1°F-10.5°C 2.9°F-16.2°C 63% 0.7 mph W1.1 kmh W 2.2 mph3.5 kmh 29.86 in1011.2 mb 0.00 in0.0 mm 0.00 in0.0 mm 0.00 in0.0 mm
07:47 AM 13.1°F-10.5°C 2.9°F-16.2°C 63% 0.7 mph W1.1 kmh W 2.2 mph3.5 kmh 29.85 in1010.8 mb 0.00 in0.0 mm 0.00 in0.0 mm 0.00 in0.0 mm
07:46 AM 13.1°F-10.5°C 2.9°F-16.2°C 63% 0.7 mph W1.1 kmh W 2.2 mph3.5 kmh 29.85 in1010.8 mb 0.00 in0.0 mm 0.00 in0.0 mm 0.00 in0.0 mm
07:45 AM 13.1°F-10.5°C 2.9°F-16.2°C 63% 0.7 mph W1.1 kmh W 2.2 mph3.5 kmh 29.85 in1010.8 mb 0.00 in0.0 mm 0.00 in0.0 mm 0.00 in0.0 mm
07:44 AM 13.1°F-10.5°C 2.9°F-16.2°C 63% 0.7 mph W1.1 kmh W 2.2 mph3.5 kmh 29.85 in1010.8 mb 0.00 in0.0 mm 0.00 in0.0 mm 0.00 in0.0 mm
07:43 AM 13.1°F-10.5°C 2.9°F-16.2°C 63% 0.7 mph W1.1 kmh W 2.2 mph3.5 kmh 29.86 in1011.2 mb 0.00 in0.0 mm 0.00 in0.0 mm 0.00 in0.0 mm
07:42 AM 13.1°F-10.5°C 2.9°F-16.2°C 63% 0.7 mph W1.1 kmh W 2.2 mph3.5 kmh 29.85 in1010.8 mb 0.00 in0.0 mm 0.00 in0.0 mm 0.00 in0.0 mm
07:41 AM 13.1°F-10.5°C 2.9°F-16.2°C 63% 0.7 mph W1.1 kmh W 2.2 mph3.5 kmh 29.85 in1010.8 mb 0.00 in0.0 mm 0.00 in0.0 mm 0.00 in0.0 mm
07:40 AM 13.1°F-10.5°C 2.9°F-16.2°C 63% 0.7 mph W1.1 kmh W 2.2 mph3.5 kmh 29.85 in1010.8 mb 0.00 in0.0 mm 0.00 in0.0 mm 0.00 in0.0 mm
07:39 AM 13.1°F-10.5°C 2.9°F-16.2°C 63% 0.7 mph W1.1 kmh W 2.2 mph3.5 kmh 29.85 in1010.8 mb 0.00 in0.0 mm 0.00 in0.0 mm 0.00 in0.0 mm
07:38 AM 13.1°F-10.5°C 2.9°F-16.2°C 63% 0.7 mph W1.1 kmh W 2.2 mph3.5 kmh 29.86 in1011.2 mb 0.00 in0.0 mm 0.00 in0.0 mm 0.00 in0.0 mm
07:37 AM 13.1°F-10.5°C 2.9°F-16.2°C 63% 0.7 mph W1.1 kmh W 2.2 mph3.5 kmh 29.85 in1010.8 mb 0.00 in0.0 mm 0.00 in0.0 mm 0.00 in0.0 mm
07:36 AM 13.1°F-10.5°C 2.9°F-16.2°C 63% 0.7 mph W1.1 kmh W 2.2 mph3.5 kmh 29.85 in1010.8 mb 0.00 in0.0 mm 0.00 in0.0 mm 0.00 in0.0 mm
07:35 AM 13.1°F-10.5°C 2.9°F-16.2°C 63% 0.7 mph W1.1 kmh W 2.2 mph3.5 kmh 29.85 in1010.8 mb 0.00 in0.0 mm 0.00 in0.0 mm 0.00 in0.0 mm
07:34 AM 13.1°F-10.5°C 2.9°F-16.2°C 63% 0.7 mph W1.1 kmh W 2.2 mph3.5 kmh 29.86 in1011.2 mb 0.00 in0.0 mm 0.00 in0.0 mm 0.00 in0.0 mm
07:33 AM 13.1°F-10.5°C 2.9°F-16.2°C 63% 0.7 mph W1.1 kmh W 2.2 mph3.5 kmh 29.86 in1011.2 mb 0.00 in0.0 mm 0.00 in0.0 mm 0.00 in0.0 mm
07:32 AM 13.1°F-10.5°C 2.9°F-16.2°C 63% 0.7 mph W1.1 kmh W 2.2 mph3.5 kmh 29.86 in1011.2 mb 0.00 in0.0 mm 0.00 in0.0 mm 0.00 in0.0 mm
07:31 AM 13.1°F-10.5°C 2.9°F-16.2°C 63% 0.7 mph W1.1 kmh W 2.2 mph3.5 kmh 29.86 in1011.2 mb 0.00 in0.0 mm 0.00 in0.0 mm 0.00 in0.0 mm
07:30 AM 13.1°F-10.5°C 2.9°F-16.2°C 63% 0.7 mph W1.1 kmh W 2.2 mph3.5 kmh 29.85 in1010.8 mb 0.00 in0.0 mm 0.00 in0.0 mm 0.00 in0.0 mm
07:29 AM 13.1°F-10.5°C 2.9°F-16.2°C 63% 0.7 mph W1.1 kmh W 2.2 mph3.5 kmh 29.85 in1010.8 mb 0.00 in0.0 mm 0.00 in0.0 mm 0.00 in0.0 mm
07:28 AM 13.1°F-10.5°C 2.9°F-16.2°C 63% 0.7 mph W1.1 kmh W 2.2 mph3.5 kmh 29.86 in1011.2 mb 0.00 in0.0 mm 0.00 in0.0 mm 0.00 in0.0 mm
07:27 AM 13.1°F-10.5°C 2.9°F-16.2°C 63% 0.7 mph W1.1 kmh W 2.2 mph3.5 kmh 29.84 in1010.5 mb 0.00 in0.0 mm 0.00 in0.0 mm 0.00 in0.0 mm
07:26 AM 13.1°F-10.5°C 2.9°F-16.2°C 63% 0.7 mph W1.1 kmh W 2.2 mph3.5 kmh 29.85 in1010.8 mb 0.00 in0.0 mm 0.00 in0.0 mm 0.00 in0.0 mm
07:25 AM 13.1°F-10.5°C 2.9°F-16.2°C 63% 0.7 mph W1.1 kmh W 2.2 mph3.5 kmh 29.86 in1011.2 mb 0.00 in0.0 mm 0.00 in0.0 mm 0.00 in0.0 mm
07:24 AM 13.1°F-10.5°C 2.9°F-16.2°C 63% 0.7 mph W1.1 kmh W 2.2 mph3.5 kmh 29.85 in1010.8 mb 0.00 in0.0 mm 0.00 in0.0 mm 0.00 in0.0 mm
07:23 AM 13.1°F-10.5°C 2.9°F-16.2°C 63% 0.7 mph W1.1 kmh W 2.2 mph3.5 kmh 29.85 in1010.8 mb 0.00 in0.0 mm 0.00 in0.0 mm 0.00 in0.0 mm
07:22 AM 13.1°F-10.5°C 2.9°F-16.2°C 63% 0.7 mph W1.1 kmh W 2.2 mph3.5 kmh 29.85 in1010.8 mb 0.00 in0.0 mm 0.00 in0.0 mm 0.00 in0.0 mm
07:21 AM 13.1°F-10.5°C 2.9°F-16.2°C 63% 0.7 mph W1.1 kmh W 2.2 mph3.5 kmh 29.86 in1011.2 mb 0.00 in0.0 mm 0.00 in0.0 mm 0.00 in0.0 mm
07:20 AM 13.1°F-10.5°C 2.9°F-16.2°C 63% 0.7 mph W1.1 kmh W 2.2 mph3.5 kmh 29.85 in1010.8 mb 0.00 in0.0 mm 0.00 in0.0 mm 0.00 in0.0 mm
07:19 AM 13.1°F-10.5°C 2.9°F-16.2°C 63% 0.7 mph W1.1 kmh W 2.2 mph3.5 kmh 29.85 in1010.8 mb 0.00 in0.0 mm 0.00 in0.0 mm 0.00 in0.0 mm
07:18 AM 13.1°F-10.5°C 2.9°F-16.2°C 63% 0.7 mph W1.1 kmh W 2.2 mph3.5 kmh 29.86 in1011.2 mb 0.00 in0.0 mm 0.00 in0.0 mm 0.00 in0.0 mm
07:17 AM 13.1°F-10.5°C 2.9°F-16.2°C 63% 0.7 mph W1.1 kmh W 2.2 mph3.5 kmh 29.84 in1010.5 mb 0.00 in0.0 mm 0.00 in0.0 mm 0.00 in0.0 mm
07:16 AM 13.1°F-10.5°C 2.9°F-16.2°C 63% 0.7 mph W1.1 kmh W 2.2 mph3.5 kmh 29.85 in1010.8 mb 0.00 in0.0 mm 0.00 in0.0 mm 0.00 in0.0 mm
07:15 AM 13.1°F-10.5°C 2.9°F-16.2°C 63% 0.7 mph W1.1 kmh W 2.2 mph3.5 kmh 29.85 in1010.8 mb 0.00 in0.0 mm 0.00 in0.0 mm 0.00 in0.0 mm
07:14 AM 13.1°F-10.5°C 2.9°F-16.2°C 63% 0.7 mph W1.1 kmh W 2.2 mph3.5 kmh 29.85 in1010.8 mb 0.00 in0.0 mm 0.00 in0.0 mm 0.00 in0.0 mm
07:13 AM 13.1°F-10.5°C 2.9°F-16.2°C 63% 0.7 mph W1.1 kmh W 2.2 mph3.5 kmh 29.85 in1010.8 mb 0.00 in0.0 mm 0.00 in0.0 mm 0.00 in0.0 mm
07:12 AM 13.1°F-10.5°C 2.9°F-16.2°C 63% 0.7 mph W1.1 kmh W 2.2 mph3.5 kmh 29.84 in1010.5 mb 0.00 in0.0 mm 0.00 in0.0 mm 0.00 in0.0 mm
07:11 AM 13.1°F-10.5°C 2.9°F-16.2°C 63% 0.7 mph W1.1 kmh W 2.2 mph3.5 kmh 29.84 in1010.5 mb 0.00 in0.0 mm 0.00 in0.0 mm 0.00 in0.0 mm
07:10 AM 13.1°F-10.5°C 2.9°F-16.2°C 63% 0.7 mph W1.1 kmh W 2.2 mph3.5 kmh 29.84 in1010.5 mb 0.00 in0.0 mm 0.00 in0.0 mm 0.00 in0.0 mm
07:09 AM 13.1°F-10.5°C 2.9°F-16.2°C 63% 0.7 mph W1.1 kmh W 2.2 mph3.5 kmh 29.85 in1010.8 mb 0.00 in0.0 mm 0.00 in0.0 mm 0.00 in0.0 mm
07:08 AM 13.1°F-10.5°C 2.9°F-16.2°C 63% 0.7 mph W1.1 kmh W 2.2 mph3.5 kmh 29.85 in1010.8 mb 0.00 in0.0 mm 0.00 in0.0 mm 0.00 in0.0 mm
07:07 AM 13.1°F-10.5°C 2.9°F-16.2°C 63% 0.7 mph W1.1 kmh W 2.2 mph3.5 kmh 29.84 in1010.5 mb 0.00 in0.0 mm 0.00 in0.0 mm 0.00 in0.0 mm
07:06 AM 13.1°F-10.5°C 2.9°F-16.2°C 63% 0.7 mph W1.1 kmh W 2.2 mph3.5 kmh 29.85 in1010.8 mb 0.00 in0.0 mm 0.00 in0.0 mm 0.00 in0.0 mm
07:05 AM 13.1°F-10.5°C 2.9°F-16.2°C 63% 0.7 mph W1.1 kmh W 2.2 mph3.5 kmh 29.85 in1010.8 mb 0.00 in0.0 mm 0.00 in0.0 mm 0.00 in0.0 mm
07:04 AM 13.1°F-10.5°C 2.9°F-16.2°C 63% 0.7 mph W1.1 kmh W 2.2 mph3.5 kmh 29.84 in1010.5 mb 0.00 in0.0 mm 0.00 in0.0 mm 0.00 in0.0 mm
07:03 AM 13.1°F-10.5°C 2.9°F-16.2°C 63% 0.7 mph W1.1 kmh W 2.2 mph3.5 kmh 29.84 in1010.5 mb 0.00 in0.0 mm 0.00 in0.0 mm 0.00 in0.0 mm
07:02 AM 13.1°F-10.5°C 2.9°F-16.2°C 63% 0.7 mph W1.1 kmh W 2.2 mph3.5 kmh 29.85 in1010.8 mb 0.00 in0.0 mm 0.00 in0.0 mm 0.00 in0.0 mm
07:01 AM 13.1°F-10.5°C 2.9°F-16.2°C 63% 0.7 mph W1.1 kmh W 2.2 mph3.5 kmh 29.85 in1010.8 mb 0.00 in0.0 mm 0.00 in0.0 mm 0.00 in0.0 mm
07:00 AM 13.1°F-10.5°C 2.9°F-16.2°C 63% 0.7 mph W1.1 kmh W 2.2 mph3.5 kmh 29.84 in1010.5 mb 0.00 in0.0 mm 0.00 in0.0 mm 0.00 in0.0 mm
06:59 AM 13.1°F-10.5°C 2.9°F-16.2°C 63% 0.7 mph W1.1 kmh W 2.2 mph3.5 kmh 29.84 in1010.5 mb 0.00 in0.0 mm 0.00 in0.0 mm 0.00 in0.0 mm
06:58 AM 13.1°F-10.5°C 2.9°F-16.2°C 63% 0.7 mph W1.1 kmh W 2.2 mph3.5 kmh 29.84 in1010.5 mb 0.00 in0.0 mm 0.00 in0.0 mm 0.00 in0.0 mm
06:57 AM 13.1°F-10.5°C 2.9°F-16.2°C 63% 0.7 mph W1.1 kmh W 2.2 mph3.5 kmh 29.84 in1010.5 mb 0.00 in0.0 mm 0.00 in0.0 mm 0.00 in0.0 mm
06:56 AM 13.1°F-10.5°C 2.9°F-16.2°C 63% 0.7 mph W1.1 kmh W 2.2 mph3.5 kmh 29.84 in1010.5 mb 0.00 in0.0 mm 0.00 in0.0 mm 0.00 in0.0 mm
06:55 AM 13.1°F-10.5°C 2.9°F-16.2°C 63% 0.7 mph WSW1.1 kmh WSW 2.2 mph3.5 kmh 29.84 in1010.5 mb 0.00 in0.0 mm 0.00 in0.0 mm 0.00 in0.0 mm
06:54 AM 13.1°F-10.5°C 2.9°F-16.2°C 63% 0.7 mph WSW1.1 kmh WSW 2.2 mph3.5 kmh 29.84 in1010.5 mb 0.00 in0.0 mm 0.00 in0.0 mm 0.00 in0.0 mm
06:53 AM 13.1°F-10.5°C 2.9°F-16.2°C 63% 0.7 mph WSW1.1 kmh WSW 2.2 mph3.5 kmh 29.84 in1010.5 mb 0.00 in0.0 mm 0.00 in0.0 mm 0.00 in0.0 mm
06:52 AM 13.1°F-10.5°C 2.9°F-16.2°C 63% 0.7 mph WSW1.1 kmh WSW 2.2 mph3.5 kmh 29.84 in1010.5 mb 0.00 in0.0 mm 0.00 in0.0 mm 0.00 in0.0 mm
06:51 AM 13.1°F-10.5°C 2.9°F-16.2°C 63% 0.7 mph WSW1.1 kmh WSW 2.2 mph3.5 kmh 29.83 in1010.2 mb 0.00 in0.0 mm 0.00 in0.0 mm 0.00 in0.0 mm
06:50 AM 13.1°F-10.5°C 2.9°F-16.2°C 63% 0.7 mph SSW1.1 kmh SSW 2.2 mph3.5 kmh 29.84 in1010.5 mb 0.00 in0.0 mm 0.00 in0.0 mm 0.00 in0.0 mm
06:49 AM 13.1°F-10.5°C 2.9°F-16.2°C 63% Calm Calm 0.7 mph1.1 kmh 29.84 in1010.5 mb 0.00 in0.0 mm 0.00 in0.0 mm 0.00 in0.0 mm
06:48 AM 14.0°F-10.0°C 3.8°F-15.7°C 63% Calm Calm 0.7 mph1.1 kmh 29.84 in1010.5 mb 0.00 in0.0 mm 0.00 in0.0 mm 0.00 in0.0 mm
06:47 AM 14.0°F-10.0°C 3.8°F-15.7°C 63% Calm Calm 0.7 mph1.1 kmh 29.84 in1010.5 mb 0.00 in0.0 mm 0.00 in0.0 mm 0.00 in0.0 mm
06:46 AM 14.0°F-10.0°C 3.8°F-15.7°C 63% Calm Calm 0.7 mph1.1 kmh 29.84 in1010.5 mb 0.00 in0.0 mm 0.00 in0.0 mm 0.00 in0.0 mm
06:45 AM 14.0°F-10.0°C 3.8°F-15.7°C 63% Calm Calm 0.7 mph1.1 kmh 29.83 in1010.2 mb 0.00 in0.0 mm 0.00 in0.0 mm 0.00 in0.0 mm
06:44 AM 14.0°F-10.0°C 3.8°F-15.7°C 63% Calm Calm 0.7 mph1.1 kmh 29.83 in1010.2 mb 0.00 in0.0 mm 0.00 in0.0 mm 0.00 in0.0 mm
06:43 AM 14.0°F-10.0°C 3.8°F-15.7°C 63% Calm Calm 0.7 mph1.1 kmh 29.84 in1010.5 mb 0.00 in0.0 mm 0.00 in0.0 mm 0.00 in0.0 mm
06:42 AM 14.0°F-10.0°C 3.8°F-15.7°C 63% Calm Calm 0.7 mph1.1 kmh 29.83 in1010.2 mb 0.00 in0.0 mm 0.00 in0.0 mm 0.00 in0.0 mm
06:41 AM 14.0°F-10.0°C 3.8°F-15.7°C 63% Calm Calm 0.7 mph1.1 kmh 29.83 in1010.2 mb 0.00 in0.0 mm 0.00 in0.0 mm 0.00 in0.0 mm
06:40 AM 14.0°F-10.0°C 3.8°F-15.7°C 63% Calm Calm 0.7 mph1.1 kmh 29.83 in1010.2 mb 0.00 in0.0 mm 0.00 in0.0 mm 0.00 in0.0 mm
06:39 AM 14.0°F-10.0°C 3.8°F-15.7°C 63% Calm Calm 0.7 mph1.1 kmh 29.83 in1010.2 mb 0.00 in0.0 mm 0.00 in0.0 mm 0.00 in0.0 mm
06:38 AM 14.0°F-10.0°C 3.8°F-15.7°C 63% Calm Calm 0.7 mph1.1 kmh 29.83 in1010.2 mb 0.00 in0.0 mm 0.00 in0.0 mm 0.00 in0.0 mm
06:37 AM 14.0°F-10.0°C 3.8°F-15.7°C 63% Calm Calm 0.7 mph1.1 kmh 29.83 in1010.2 mb 0.00 in0.0 mm 0.00 in0.0 mm 0.00 in0.0 mm
06:36 AM 14.0°F-10.0°C 3.8°F-15.7°C 63% Calm Calm 0.7 mph1.1 kmh 29.83 in1010.2 mb 0.00 in0.0 mm 0.00 in0.0 mm 0.00 in0.0 mm
06:35 AM 14.0°F-10.0°C 3.8°F-15.7°C 63% Calm Calm 0.7 mph1.1 kmh 29.83 in1010.2 mb 0.00 in0.0 mm 0.00 in0.0 mm 0.00 in0.0 mm
06:34 AM 14.0°F-10.0°C 3.8°F-15.7°C 63% Calm Calm 0.7 mph1.1 kmh 29.83 in1010.2 mb 0.00 in0.0 mm 0.00 in0.0 mm 0.00 in0.0 mm
06:33 AM 14.0°F-10.0°C 3.8°F-15.7°C 63% Calm Calm 0.7 mph1.1 kmh 29.83 in1010.2 mb 0.00 in0.0 mm 0.00 in0.0 mm 0.00 in0.0 mm
06:32 AM 14.0°F-10.0°C 3.8°F-15.7°C 63% Calm Calm 0.7 mph1.1 kmh 29.83 in1010.2 mb 0.00 in0.0 mm 0.00 in0.0 mm 0.00 in0.0 mm
06:31 AM 14.0°F-10.0°C 3.8°F-15.7°C 63% Calm Calm 0.7 mph1.1 kmh 29.82 in1009.8 mb 0.00 in0.0 mm 0.00 in0.0 mm 0.00 in0.0 mm
06:30 AM 14.0°F-10.0°C 3.8°F-15.7°C 63% Calm Calm 0.7 mph1.1 kmh 29.83 in1010.2 mb 0.00 in0.0 mm 0.00 in0.0 mm 0.00 in0.0 mm
06:29 AM 14.0°F-10.0°C 3.8°F-15.7°C 63% Calm Calm 0.7 mph1.1 kmh 29.83 in1010.2 mb 0.00 in0.0 mm 0.00 in0.0 mm 0.00 in0.0 mm
06:28 AM 14.0°F-10.0°C 3.8°F-15.7°C 63% Calm Calm 0.7 mph1.1 kmh 29.82 in1009.8 mb 0.00 in0.0 mm 0.00 in0.0 mm 0.00 in0.0 mm
06:27 AM 14.0°F-10.0°C 3.8°F-15.7°C 63% Calm Calm 0.7 mph1.1 kmh 29.83 in1010.2 mb 0.00 in0.0 mm 0.00 in0.0 mm 0.00 in0.0 mm
06:26 AM 14.0°F-10.0°C 3.8°F-15.7°C 63% Calm Calm 0.7 mph1.1 kmh 29.82 in1009.8 mb 0.00 in0.0 mm 0.00 in0.0 mm 0.00 in0.0 mm
06:25 AM 14.0°F-10.0°C 3.8°F-15.7°C 63% Calm Calm 0.7 mph1.1 kmh 29.82 in1009.8 mb 0.00 in0.0 mm 0.00 in0.0 mm 0.00 in0.0 mm
06:24 AM 14.0°F-10.0°C 3.8°F-15.7°C 63% Calm Calm 0.7 mph1.1 kmh 29.82 in1009.8 mb 0.00 in0.0 mm 0.00 in0.0 mm 0.00 in0.0 mm
06:23 AM 14.0°F-10.0°C 3.8°F-15.7°C 63% Calm Calm 0.7 mph1.1 kmh 29.82 in1009.8 mb 0.00 in0.0 mm 0.00 in0.0 mm 0.00 in0.0 mm
06:22 AM 14.0°F-10.0°C 3.8°F-15.7°C 63% Calm Calm 0.7 mph1.1 kmh 29.82 in1009.8 mb 0.00 in0.0 mm 0.00 in0.0 mm 0.00 in0.0 mm
06:21 AM 14.0°F-10.0°C 3.8°F-15.7°C 63% Calm Calm 0.7 mph1.1 kmh 29.82 in1009.8 mb 0.00 in0.0 mm 0.00 in0.0 mm 0.00 in0.0 mm
06:20 AM 14.0°F-10.0°C 3.8°F-15.7°C 63% Calm Calm 0.7 mph1.1 kmh 29.83 in1010.2 mb 0.00 in0.0 mm 0.00 in0.0 mm 0.00 in0.0 mm
06:19 AM 14.0°F-10.0°C 3.8°F-15.7°C 63% Calm Calm 0.7 mph1.1 kmh 29.82 in1009.8 mb 0.00 in0.0 mm 0.00 in0.0 mm 0.00 in0.0 mm
06:18 AM 14.0°F-10.0°C 3.8°F-15.7°C 63% Calm Calm 0.7 mph1.1 kmh 29.82 in1009.8 mb 0.00 in0.0 mm 0.00 in0.0 mm 0.00 in0.0 mm
06:17 AM 14.0°F-10.0°C 3.8°F-15.7°C 63% Calm Calm 0.7 mph1.1 kmh 29.82 in1009.8 mb 0.00 in0.0 mm 0.00 in0.0 mm 0.00 in0.0 mm
06:16 AM 14.0°F-10.0°C 3.8°F-15.7°C 63% Calm Calm 0.7 mph1.1 kmh 29.82 in1009.8 mb 0.00 in0.0 mm 0.00 in0.0 mm 0.00 in0.0 mm
06:15 AM 14.0°F-10.0°C 3.8°F-15.7°C 63% Calm Calm 0.7 mph1.1 kmh 29.82 in1009.8 mb 0.00 in0.0 mm 0.00 in0.0 mm 0.00 in0.0 mm
06:14 AM 14.0°F-10.0°C 3.8°F-15.7°C 63% Calm Calm 0.7 mph1.1 kmh 29.83 in1010.2 mb 0.00 in0.0 mm 0.00 in0.0 mm 0.00 in0.0 mm
06:13 AM 14.0°F-10.0°C 3.8°F-15.7°C 63% Calm Calm 0.7 mph1.1 kmh 29.83 in1010.2 mb 0.00 in0.0 mm 0.00 in0.0 mm 0.00 in0.0 mm
06:12 AM 14.0°F-10.0°C 3.8°F-15.7°C 63% Calm Calm 0.7 mph1.1 kmh 29.82 in1009.8 mb 0.00 in0.0 mm 0.00 in0.0 mm 0.00 in0.0 mm
06:11 AM 14.0°F-10.0°C 3.8°F-15.7°C 63% Calm Calm 0.7 mph1.1 kmh 29.82 in1009.8 mb 0.00 in0.0 mm 0.00 in0.0 mm 0.00 in0.0 mm
06:10 AM 14.0°F-10.0°C 3.8°F-15.7°C 63% Calm Calm 0.7 mph1.1 kmh 29.82 in1009.8 mb 0.00 in0.0 mm 0.00 in0.0 mm 0.00 in0.0 mm
06:09 AM 14.0°F-10.0°C 3.8°F-15.7°C 63% Calm Calm 0.7 mph1.1 kmh 29.82 in1009.8 mb 0.00 in0.0 mm 0.00 in0.0 mm 0.00 in0.0 mm
06:08 AM 14.0°F-10.0°C 3.8°F-15.7°C 63% Calm Calm 0.7 mph1.1 kmh 29.82 in1009.8 mb 0.00 in0.0 mm 0.00 in0.0 mm 0.00 in0.0 mm
06:07 AM 14.0°F-10.0°C 3.8°F-15.7°C 63% Calm Calm 0.7 mph1.1 kmh 29.82 in1009.8 mb 0.00 in0.0 mm 0.00 in0.0 mm 0.00 in0.0 mm
06:06 AM 14.0°F-10.0°C 3.8°F-15.7°C 63% Calm Calm 0.7 mph1.1 kmh 29.82 in1009.8 mb 0.00 in0.0 mm 0.00 in0.0 mm 0.00 in0.0 mm
06:05 AM 14.0°F-10.0°C 3.8°F-15.7°C 63% Calm Calm 0.7 mph1.1 kmh 29.83 in1010.2 mb 0.00 in0.0 mm 0.00 in0.0 mm 0.00 in0.0 mm
06:04 AM 14.0°F-10.0°C 3.8°F-15.7°C 63% Calm Calm 0.7 mph1.1 kmh 29.82 in1009.8 mb 0.00 in0.0 mm 0.00 in0.0 mm 0.00 in0.0 mm
06:03 AM 14.0°F-10.0°C 3.8°F-15.7°C 63% Calm Calm 0.7 mph1.1 kmh 29.82 in1009.8 mb 0.00 in0.0 mm 0.00 in0.0 mm 0.00 in0.0 mm
06:02 AM 14.0°F-10.0°C 3.8°F-15.7°C 63% Calm Calm 0.7 mph1.1 kmh 29.82 in1009.8 mb 0.00 in0.0 mm 0.00 in0.0 mm 0.00 in0.0 mm
06:01 AM 14.0°F-10.0°C 3.8°F-15.7°C 63% Calm Calm 0.7 mph1.1 kmh 29.82 in1009.8 mb 0.00 in0.0 mm 0.00 in0.0 mm 0.00 in0.0 mm
06:00 AM 14.0°F-10.0°C 3.8°F-15.7°C 63% Calm Calm 0.7 mph1.1 kmh 29.82 in1009.8 mb 0.00 in0.0 mm 0.00 in0.0 mm 0.00 in0.0 mm
05:59 AM 14.0°F-10.0°C 3.8°F-15.7°C 63% Calm Calm 0.7 mph1.1 kmh 29.82 in1009.8 mb 0.00 in0.0 mm 0.00 in0.0 mm 0.00 in0.0 mm
05:58 AM 14.0°F-10.0°C 3.8°F-15.7°C 63% Calm Calm 0.7 mph1.1 kmh 29.83 in1010.2 mb 0.00 in0.0 mm 0.00 in0.0 mm 0.00 in0.0 mm
05:57 AM 14.0°F-10.0°C 3.8°F-15.7°C 63% Calm Calm 0.7 mph1.1 kmh 29.83 in1010.2 mb 0.00 in0.0 mm 0.00 in0.0 mm 0.00 in0.0 mm
05:56 AM 14.0°F-10.0°C 3.8°F-15.7°C 63% Calm Calm 0.7 mph1.1 kmh 29.83 in1010.2 mb 0.00 in0.0 mm 0.00 in0.0 mm 0.00 in0.0 mm
05:55 AM 14.0°F-10.0°C 3.8°F-15.7°C 63% Calm Calm 0.7 mph1.1 kmh 29.82 in1009.8 mb 0.00 in0.0 mm 0.00 in0.0 mm 0.00 in0.0 mm
05:54 AM 14.0°F-10.0°C 3.8°F-15.7°C 63% Calm Calm 0.7 mph1.1 kmh 29.82 in1009.8 mb 0.00 in0.0 mm 0.00 in0.0 mm 0.00 in0.0 mm
05:53 AM 14.0°F-10.0°C 3.8°F-15.7°C 63% Calm Calm 0.7 mph1.1 kmh 29.83 in1010.2 mb 0.00 in0.0 mm 0.00 in0.0 mm 0.00 in0.0 mm
05:52 AM 14.0°F-10.0°C 3.8°F-15.7°C 63% Calm Calm 0.7 mph1.1 kmh 29.82 in1009.8 mb 0.00 in0.0 mm 0.00 in0.0 mm 0.00 in0.0 mm
05:51 AM 14.0°F-10.0°C 3.8°F-15.7°C 63% Calm Calm 0.7 mph1.1 kmh 29.83 in1010.2 mb 0.00 in0.0 mm 0.00 in0.0 mm 0.00 in0.0 mm
05:50 AM 14.0°F-10.0°C 3.8°F-15.7°C 63% Calm Calm 0.7 mph1.1 kmh 29.82 in1009.8 mb 0.00 in0.0 mm 0.00 in0.0 mm 0.00 in0.0 mm
05:49 AM 14.0°F-10.0°C 3.8°F-15.7°C 63% Calm Calm 0.7 mph1.1 kmh 29.82 in1009.8 mb 0.00 in0.0 mm 0.00 in0.0 mm 0.00 in0.0 mm
05:48 AM 14.0°F-10.0°C 3.8°F-15.7°C 63% Calm Calm 0.7 mph1.1 kmh 29.82 in1009.8 mb 0.00 in0.0 mm 0.00 in0.0 mm 0.00 in0.0 mm
05:47 AM 14.0°F-10.0°C 3.8°F-15.7°C 63% Calm Calm 0.7 mph1.1 kmh 29.82 in1009.8 mb 0.00 in0.0 mm 0.00 in0.0 mm 0.00 in0.0 mm
05:46 AM 14.0°F-10.0°C 3.8°F-15.7°C 63% Calm Calm 0.7 mph1.1 kmh 29.82 in1009.8 mb 0.00 in0.0 mm 0.00 in0.0 mm 0.00 in0.0 mm
05:45 AM 14.0°F-10.0°C 3.8°F-15.7°C 63% Calm Calm 0.7 mph1.1 kmh 29.82 in1009.8 mb 0.00 in0.0 mm 0.00 in0.0 mm 0.00 in0.0 mm
05:44 AM 14.0°F-10.0°C 3.8°F-15.7°C 63% Calm Calm 0.7 mph1.1 kmh 29.82 in1009.8 mb 0.00 in0.0 mm 0.00 in0.0 mm 0.00 in0.0 mm
05:43 AM 14.0°F-10.0°C 3.8°F-15.7°C 63% Calm Calm 0.7 mph1.1 kmh 29.82 in1009.8 mb 0.00 in0.0 mm 0.00 in0.0 mm 0.00 in0.0 mm
05:42 AM 14.0°F-10.0°C 3.8°F-15.7°C 63% Calm Calm 0.7 mph1.1 kmh 29.82 in1009.8 mb 0.00 in0.0 mm 0.00 in0.0 mm 0.00 in0.0 mm
05:41 AM 14.0°F-10.0°C 3.8°F-15.7°C 63% Calm Calm 0.7 mph1.1 kmh 29.82 in1009.8 mb 0.00 in0.0 mm 0.00 in0.0 mm 0.00 in0.0 mm
05:40 AM 14.0°F-10.0°C 3.8°F-15.7°C 63% Calm Calm 0.7 mph1.1 kmh 29.82 in1009.8 mb 0.00 in0.0 mm 0.00 in0.0 mm 0.00 in0.0 mm
05:39 AM 14.0°F-10.0°C 3.8°F-15.7°C 63% Calm Calm 0.7 mph1.1 kmh 29.82 in1009.8 mb 0.00 in0.0 mm 0.00 in0.0 mm 0.00 in0.0 mm
05:38 AM 14.0°F-10.0°C 3.8°F-15.7°C 63% Calm Calm 0.7 mph1.1 kmh 29.81 in1009.5 mb 0.00 in0.0 mm 0.00 in0.0 mm 0.00 in0.0 mm
05:37 AM 14.0°F-10.0°C 3.8°F-15.7°C 63% Calm Calm 0.7 mph1.1 kmh 29.82 in1009.8 mb 0.00 in0.0 mm 0.00 in0.0 mm 0.00 in0.0 mm
05:36 AM 14.0°F-10.0°C 3.8°F-15.7°C 63% Calm Calm 0.7 mph1.1 kmh 29.82 in1009.8 mb 0.00 in0.0 mm 0.00 in0.0 mm 0.00 in0.0 mm
05:35 AM 14.0°F-10.0°C 3.8°F-15.7°C 63% Calm Calm 0.7 mph1.1 kmh 29.82 in1009.8 mb 0.00 in0.0 mm 0.00 in0.0 mm 0.00 in0.0 mm
05:34 AM 14.0°F-10.0°C 3.8°F-15.7°C 63% Calm Calm 0.7 mph1.1 kmh 29.82 in1009.8 mb 0.00 in0.0 mm 0.00 in0.0 mm 0.00 in0.0 mm
05:33 AM 14.0°F-10.0°C 3.8°F-15.7°C 63% Calm Calm 0.7 mph1.1 kmh 29.82 in1009.8 mb 0.00 in0.0 mm 0.00 in0.0 mm 0.00 in0.0 mm
05:32 AM 14.0°F-10.0°C 3.8°F-15.7°C 63% Calm Calm 0.7 mph1.1 kmh 29.82 in1009.8 mb 0.00 in0.0 mm 0.00 in0.0 mm 0.00 in0.0 mm
05:31 AM 14.0°F-10.0°C 3.8°F-15.7°C 63% Calm Calm 0.7 mph1.1 kmh 29.81 in1009.5 mb 0.00 in0.0 mm 0.00 in0.0 mm 0.00 in0.0 mm
05:30 AM 14.0°F-10.0°C 3.8°F-15.7°C 63% Calm Calm 0.7 mph1.1 kmh 29.82 in1009.8 mb 0.00 in0.0 mm 0.00 in0.0 mm 0.00 in0.0 mm
05:29 AM 14.0°F-10.0°C 3.8°F-15.7°C 63% Calm Calm 0.7 mph1.1 kmh 29.81 in1009.5 mb 0.00 in0.0 mm 0.00 in0.0 mm 0.00 in0.0 mm
05:28 AM 14.0°F-10.0°C 3.8°F-15.7°C 63% Calm Calm 0.7 mph1.1 kmh 29.82 in1009.8 mb 0.00 in0.0 mm 0.00 in0.0 mm 0.00 in0.0 mm
05:27 AM 14.0°F-10.0°C 3.8°F-15.7°C 63% Calm Calm 0.7 mph1.1 kmh 29.81 in1009.5 mb 0.00 in0.0 mm 0.00 in0.0 mm 0.00 in0.0 mm
05:26 AM 14.0°F-10.0°C 3.8°F-15.7°C 63% Calm Calm 0.7 mph1.1 kmh 29.81 in1009.5 mb 0.00 in0.0 mm 0.00 in0.0 mm 0.00 in0.0 mm
05:25 AM 14.0°F-10.0°C 3.8°F-15.7°C 63% Calm Calm 0.7 mph1.1 kmh 29.81 in1009.5 mb 0.00 in0.0 mm 0.00 in0.0 mm 0.00 in0.0 mm
05:24 AM 14.0°F-10.0°C 3.8°F-15.7°C 63% Calm Calm 0.7 mph1.1 kmh 29.81 in1009.5 mb 0.00 in0.0 mm 0.00 in0.0 mm 0.00 in0.0 mm
05:23 AM 14.0°F-10.0°C 3.8°F-15.7°C 63% Calm Calm 0.7 mph1.1 kmh 29.81 in1009.5 mb 0.00 in0.0 mm 0.00 in0.0 mm 0.00 in0.0 mm
05:22 AM 14.0°F-10.0°C 3.8°F-15.7°C 63% Calm Calm 0.7 mph1.1 kmh 29.81 in1009.5 mb 0.00 in0.0 mm 0.00 in0.0 mm 0.00 in0.0 mm
05:21 AM 14.0°F-10.0°C 3.8°F-15.7°C 63% Calm Calm 0.7 mph1.1 kmh 29.81 in1009.5 mb 0.00 in0.0 mm 0.00 in0.0 mm 0.00 in0.0 mm
05:20 AM 14.0°F-10.0°C 3.8°F-15.7°C 63% Calm Calm 0.7 mph1.1 kmh 29.81 in1009.5 mb 0.00 in0.0 mm 0.00 in0.0 mm 0.00 in0.0 mm
05:19 AM 14.0°F-10.0°C 3.8°F-15.7°C 63% Calm Calm 0.7 mph1.1 kmh 29.81 in1009.5 mb 0.00 in0.0 mm 0.00 in0.0 mm 0.00 in0.0 mm
05:18 AM 14.0°F-10.0°C 3.8°F-15.7°C 63% Calm Calm 0.7 mph1.1 kmh 29.81 in1009.5 mb 0.00 in0.0 mm 0.00 in0.0 mm 0.00 in0.0 mm
05:17 AM 14.0°F-10.0°C 3.8°F-15.7°C 63% Calm Calm 0.7 mph1.1 kmh 29.81 in1009.5 mb 0.00 in0.0 mm 0.00 in0.0 mm 0.00 in0.0 mm
05:16 AM 14.0°F-10.0°C 3.8°F-15.7°C 63% Calm Calm 0.7 mph1.1 kmh 29.81 in1009.5 mb 0.00 in0.0 mm 0.00 in0.0 mm 0.00 in0.0 mm
05:15 AM 14.2°F-9.9°C 4.0°F-15.6°C 63% Calm Calm 0.7 mph1.1 kmh 29.81 in1009.5 mb 0.00 in0.0 mm 0.00 in0.0 mm 0.00 in0.0 mm
05:14 AM 14.2°F-9.9°C 4.0°F-15.6°C 63% Calm Calm 0.7 mph1.1 kmh 29.80 in1009.1 mb 0.00 in0.0 mm 0.00 in0.0 mm 0.00 in0.0 mm
05:13 AM 14.2°F-9.9°C 4.0°F-15.6°C 63% Calm Calm 0.7 mph1.1 kmh 29.80 in1009.1 mb 0.00 in0.0 mm 0.00 in0.0 mm 0.00 in0.0 mm
05:12 AM 14.2°F-9.9°C 4.0°F-15.6°C 63% Calm Calm 0.7 mph1.1 kmh 29.81 in1009.5 mb 0.00 in0.0 mm 0.00 in0.0 mm 0.00 in0.0 mm
05:11 AM 14.2°F-9.9°C 4.0°F-15.6°C 63% Calm Calm 0.7 mph1.1 kmh 29.80 in1009.1 mb 0.00 in0.0 mm 0.00 in0.0 mm 0.00 in0.0 mm
05:10 AM 14.5°F-9.7°C 4.3°F-15.4°C 63% Calm Calm 0.7 mph1.1 kmh 29.81 in1009.5 mb 0.00 in0.0 mm 0.00 in0.0 mm 0.00 in0.0 mm
05:09 AM 14.5°F-9.7°C 4.3°F-15.4°C 63% Calm Calm 0.7 mph1.1 kmh 29.80 in1009.1 mb 0.00 in0.0 mm 0.00 in0.0 mm 0.00 in0.0 mm
05:08 AM 14.5°F-9.7°C 4.3°F-15.4°C 63% Calm Calm 0.7 mph1.1 kmh 29.81 in1009.5 mb 0.00 in0.0 mm 0.00 in0.0 mm 0.00 in0.0 mm
05:07 AM 14.5°F-9.7°C 4.3°F-15.4°C 63% Calm Calm 0.7 mph1.1 kmh 29.81 in1009.5 mb 0.00 in0.0 mm 0.00 in0.0 mm 0.00 in0.0 mm
05:06 AM 14.5°F-9.7°C 4.3°F-15.4°C 63% Calm Calm 0.7 mph1.1 kmh 29.81 in1009.5 mb 0.00 in0.0 mm 0.00 in0.0 mm 0.00 in0.0 mm
05:05 AM 14.5°F-9.7°C 4.3°F-15.4°C 63% Calm Calm 0.7 mph1.1 kmh 29.80 in1009.1 mb 0.00 in0.0 mm 0.00 in0.0 mm 0.00 in0.0 mm
05:04 AM 14.5°F-9.7°C 4.3°F-15.4°C 63% Calm Calm 0.7 mph1.1 kmh 29.81 in1009.5 mb 0.00 in0.0 mm 0.00 in0.0 mm 0.00 in0.0 mm
05:03 AM 14.5°F-9.7°C 4.3°F-15.4°C 63% Calm Calm 0.7 mph1.1 kmh 29.81 in1009.5 mb 0.00 in0.0 mm 0.00 in0.0 mm 0.00 in0.0 mm
05:02 AM 14.5°F-9.7°C 4.3°F-15.4°C 63% Calm Calm 0.7 mph1.1 kmh 29.81 in1009.5 mb 0.00 in0.0 mm 0.00 in0.0 mm 0.00 in0.0 mm
05:01 AM 14.5°F-9.7°C 4.3°F-15.4°C 63% Calm Calm 0.7 mph1.1 kmh 29.80 in1009.1 mb 0.00 in0.0 mm 0.00 in0.0 mm 0.00 in0.0 mm
05:00 AM 14.5°F-9.7°C 4.3°F-15.4°C 63% Calm Calm 0.7 mph1.1 kmh 29.81 in1009.5 mb 0.00 in0.0 mm 0.00 in0.0 mm 0.00 in0.0 mm
04:59 AM 14.5°F-9.7°C 4.3°F-15.4°C 63% Calm Calm 0.7 mph1.1 kmh 29.80 in1009.1 mb 0.00 in0.0 mm 0.00 in0.0 mm 0.00 in0.0 mm
04:58 AM 14.5°F-9.7°C 4.3°F-15.4°C 63% Calm Calm -- 29.80 in1009.1 mb 0.00 in0.0 mm 0.00 in0.0 mm 0.00 in0.0 mm
04:57 AM 14.5°F-9.7°C 4.3°F-15.4°C 63% Calm Calm -- 29.80 in1009.1 mb 0.00 in0.0 mm 0.00 in0.0 mm 0.00 in0.0 mm
04:56 AM 14.5°F-9.7°C 4.3°F-15.4°C 63% Calm Calm -- 29.81 in1009.5 mb 0.00 in0.0 mm 0.00 in0.0 mm 0.00 in0.0 mm
04:55 AM 14.5°F-9.7°C 4.3°F-15.4°C 63% Calm Calm -- 29.81 in1009.5 mb 0.00 in0.0 mm 0.00 in0.0 mm 0.00 in0.0 mm
04:54 AM 14.5°F-9.7°C 4.3°F-15.4°C 63% Calm Calm -- 29.80 in1009.1 mb 0.00 in0.0 mm 0.00 in0.0 mm 0.00 in0.0 mm
04:53 AM 14.4°F-9.8°C 4.5°F-15.3°C 64% Calm Calm 0.7 mph1.1 kmh 29.80 in1009.1 mb 0.00 in0.0 mm 0.00 in0.0 mm 0.00 in0.0 mm
04:52 AM 14.4°F-9.8°C 4.5°F-15.3°C 64% Calm Calm 0.7 mph1.1 kmh 29.81 in1009.5 mb 0.00 in0.0 mm 0.00 in0.0 mm 0.00 in0.0 mm
04:51 AM 14.4°F-9.8°C 4.5°F-15.3°C 64% Calm Calm 0.7 mph1.1 kmh 29.80 in1009.1 mb 0.00 in0.0 mm 0.00 in0.0 mm 0.00 in0.0 mm
04:50 AM 14.4°F-9.8°C 4.5°F-15.3°C 64% Calm Calm 0.7 mph1.1 kmh 29.80 in1009.1 mb 0.00 in0.0 mm 0.00 in0.0 mm 0.00 in0.0 mm
04:49 AM 14.4°F-9.8°C 4.5°F-15.3°C 64% Calm Calm 0.7 mph1.1 kmh 29.80 in1009.1 mb 0.00 in0.0 mm 0.00 in0.0 mm 0.00 in0.0 mm
04:48 AM 14.4°F-9.8°C 4.5°F-15.3°C 64% Calm Calm 0.7 mph1.1 kmh 29.81 in1009.5 mb 0.00 in0.0 mm 0.00 in0.0 mm 0.00 in0.0 mm
04:47 AM 14.4°F-9.8°C 4.5°F-15.3°C 64% Calm Calm 0.7 mph1.1 kmh 29.81 in1009.5 mb 0.00 in0.0 mm 0.00 in0.0 mm 0.00 in0.0 mm
04:46 AM 14.4°F-9.8°C 4.5°F-15.3°C 64% Calm Calm 0.7 mph1.1 kmh 29.81 in1009.5 mb 0.00 in0.0 mm 0.00 in0.0 mm 0.00 in0.0 mm
04:45 AM 14.4°F-9.8°C 4.5°F-15.3°C 64% Calm Calm 0.7 mph1.1 kmh 29.80 in1009.1 mb 0.00 in0.0 mm 0.00 in0.0 mm 0.00 in0.0 mm
04:44 AM 14.4°F-9.8°C 4.5°F-15.3°C 64% Calm Calm 0.7 mph1.1 kmh 29.80 in1009.1 mb 0.00 in0.0 mm 0.00 in0.0 mm 0.00 in0.0 mm
04:43 AM 14.4°F-9.8°C 4.5°F-15.3°C 64% Calm Calm 0.7 mph1.1 kmh 29.81 in1009.5 mb 0.00 in0.0 mm 0.00 in0.0 mm 0.00 in0.0 mm
04:42 AM 14.4°F-9.8°C 4.5°F-15.3°C 64% Calm Calm 0.7 mph1.1 kmh 29.80 in1009.1 mb 0.00 in0.0 mm 0.00 in0.0 mm 0.00 in0.0 mm
04:41 AM 14.4°F-9.8°C 4.5°F-15.3°C 64% Calm Calm 0.7 mph1.1 kmh 29.80 in1009.1 mb 0.00 in0.0 mm 0.00 in0.0 mm 0.00 in0.0 mm
04:40 AM 14.4°F-9.8°C 4.5°F-15.3°C 64% Calm Calm 0.7 mph1.1 kmh 29.80 in1009.1 mb 0.00 in0.0 mm 0.00 in0.0 mm 0.00 in0.0 mm
04:39 AM 14.4°F-9.8°C 4.5°F-15.3°C 64% Calm Calm 0.7 mph1.1 kmh 29.81 in1009.5 mb 0.00 in0.0 mm 0.00 in0.0 mm 0.00 in0.0 mm
04:38 AM 14.4°F-9.8°C 4.5°F-15.3°C 64% Calm Calm 0.7 mph1.1 kmh 29.80 in1009.1 mb 0.00 in0.0 mm 0.00 in0.0 mm 0.00 in0.0 mm
04:37 AM 14.4°F-9.8°C 4.5°F-15.3°C 64% Calm Calm 0.7 mph1.1 kmh 29.80 in1009.1 mb 0.00 in0.0 mm 0.00 in0.0 mm 0.00 in0.0 mm
04:36 AM 14.4°F-9.8°C 4.5°F-15.3°C 64% Calm Calm 0.7 mph1.1 kmh 29.81 in1009.5 mb 0.00 in0.0 mm 0.00 in0.0 mm 0.00 in0.0 mm
04:35 AM 14.4°F-9.8°C 4.5°F-15.3°C 64% Calm Calm 0.7 mph1.1 kmh 29.80 in1009.1 mb 0.00 in0.0 mm 0.00 in0.0 mm 0.00 in0.0 mm
04:34 AM 14.4°F-9.8°C 4.5°F-15.3°C 64% Calm Calm 0.7 mph1.1 kmh 29.80 in1009.1 mb 0.00 in0.0 mm 0.00 in0.0 mm 0.00 in0.0 mm
04:33 AM 14.4°F-9.8°C 4.5°F-15.3°C 64% Calm Calm 0.7 mph1.1 kmh 29.80 in1009.1 mb 0.00 in0.0 mm 0.00 in0.0 mm 0.00 in0.0 mm
04:32 AM 14.4°F-9.8°C 4.5°F-15.3°C 64% Calm Calm 0.7 mph1.1 kmh 29.80 in1009.1 mb 0.00 in0.0 mm 0.00 in0.0 mm 0.00 in0.0 mm
04:31 AM 14.5°F-9.7°C 4.7°F-15.2°C 64% Calm Calm 0.7 mph1.1 kmh 29.80 in1009.1 mb 0.00 in0.0 mm 0.00 in0.0 mm 0.00 in0.0 mm
04:30 AM 14.5°F-9.7°C 4.7°F-15.2°C 64% Calm Calm 0.7 mph1.1 kmh 29.80 in1009.1 mb 0.00 in0.0 mm 0.00 in0.0 mm 0.00 in0.0 mm
04:29 AM 14.5°F-9.7°C 4.7°F-15.2°C 64% Calm Calm 0.7 mph1.1 kmh 29.80 in1009.1 mb 0.00 in0.0 mm 0.00 in0.0 mm 0.00 in0.0 mm
04:28 AM 14.5°F-9.7°C 4.7°F-15.2°C 64% Calm Calm 0.7 mph1.1 kmh 29.80 in1009.1 mb 0.00 in0.0 mm 0.00 in0.0 mm 0.00 in0.0 mm
04:27 AM 14.5°F-9.7°C 4.7°F-15.2°C 64% Calm Calm 0.7 mph1.1 kmh 29.80 in1009.1 mb 0.00 in0.0 mm 0.00 in0.0 mm 0.00 in0.0 mm
04:26 AM 14.5°F-9.7°C 4.7°F-15.2°C 64% Calm Calm 0.7 mph1.1 kmh 29.80 in1009.1 mb 0.00 in0.0 mm 0.00 in0.0 mm 0.00 in0.0 mm
04:25 AM 14.5°F-9.7°C 4.7°F-15.2°C 64% Calm Calm 0.7 mph1.1 kmh 29.80 in1009.1 mb 0.00 in0.0 mm 0.00 in0.0 mm 0.00 in0.0 mm
04:24 AM 14.5°F-9.7°C 4.7°F-15.2°C 64% Calm Calm 0.7 mph1.1 kmh 29.80 in1009.1 mb 0.00 in0.0 mm 0.00 in0.0 mm 0.00 in0.0 mm
04:23 AM 14.5°F-9.7°C 4.7°F-15.2°C 64% Calm Calm 0.7 mph1.1 kmh 29.80 in1009.1 mb 0.00 in0.0 mm 0.00 in0.0 mm 0.00 in0.0 mm
04:22 AM 14.5°F-9.7°C 4.7°F-15.2°C 64% Calm Calm 0.7 mph1.1 kmh 29.80 in1009.1 mb 0.00 in0.0 mm 0.00 in0.0 mm 0.00 in0.0 mm
04:21 AM 14.5°F-9.7°C 4.7°F-15.2°C 64% Calm Calm -- 29.80 in1009.1 mb 0.00 in0.0 mm 0.00 in0.0 mm 0.00 in0.0 mm
04:20 AM 14.5°F-9.7°C 4.7°F-15.2°C 64% Calm Calm 2.2 mph3.5 kmh 29.80 in1009.1 mb 0.00 in0.0 mm 0.00 in0.0 mm 0.00 in0.0 mm
04:19 AM 14.5°F-9.7°C 4.7°F-15.2°C 64% Calm Calm 2.2 mph3.5 kmh 29.80 in1009.1 mb 0.00 in0.0 mm 0.00 in0.0 mm 0.00 in0.0 mm
04:18 AM 14.5°F-9.7°C 4.7°F-15.2°C 64% Calm Calm 2.2 mph3.5 kmh 29.80 in1009.1 mb 0.00 in0.0 mm 0.00 in0.0 mm 0.00 in0.0 mm
04:17 AM 14.5°F-9.7°C 4.7°F-15.2°C 64% Calm Calm 2.2 mph3.5 kmh 29.80 in1009.1 mb 0.00 in0.0 mm 0.00 in0.0 mm 0.00 in0.0 mm
04:16 AM 14.5°F-9.7°C 4.7°F-15.2°C 64% Calm Calm 2.2 mph3.5 kmh 29.80 in1009.1 mb 0.00 in0.0 mm 0.00 in0.0 mm 0.00 in0.0 mm
04:15 AM 14.5°F-9.7°C 4.7°F-15.2°C 64% Calm Calm 2.2 mph3.5 kmh 29.80 in1009.1 mb 0.00 in0.0 mm 0.00 in0.0 mm 0.00 in0.0 mm
04:14 AM 14.5°F-9.7°C 4.7°F-15.2°C 64% Calm Calm 2.2 mph3.5 kmh 29.80 in1009.1 mb 0.00 in0.0 mm 0.00 in0.0 mm 0.00 in0.0 mm
04:13 AM 14.5°F-9.7°C 4.7°F-15.2°C 64% Calm Calm 3.1 mph5.0 kmh 29.81 in1009.5 mb 0.00 in0.0 mm 0.00 in0.0 mm 0.00 in0.0 mm
04:12 AM 14.5°F-9.7°C 4.7°F-15.2°C 64% Calm Calm 3.1 mph5.0 kmh 29.80 in1009.1 mb 0.00 in0.0 mm 0.00 in0.0 mm 0.00 in0.0 mm
04:11 AM 14.5°F-9.7°C 4.7°F-15.2°C 64% Calm Calm 3.1 mph5.0 kmh 29.80 in1009.1 mb 0.00 in0.0 mm 0.00 in0.0 mm 0.00 in0.0 mm
04:10 AM 14.7°F-9.6°C 5.2°F-14.9°C 65% 0.7 mph SW1.1 kmh SW 3.1 mph5.0 kmh 29.80 in1009.1 mb 0.00 in0.0 mm 0.00 in0.0 mm 0.00 in0.0 mm
04:09 AM 14.7°F-9.6°C 5.2°F-14.9°C 65% 0.7 mph SW1.1 kmh SW 3.1 mph5.0 kmh 29.79 in1008.8 mb 0.00 in0.0 mm 0.00 in0.0 mm 0.00 in0.0 mm
04:08 AM 14.7°F-9.6°C 5.2°F-14.9°C 65% 0.7 mph SW1.1 kmh SW 3.1 mph5.0 kmh 29.80 in1009.1 mb 0.00 in0.0 mm 0.00 in0.0 mm 0.00 in0.0 mm
04:07 AM 14.7°F-9.6°C 5.2°F-14.9°C 65% 0.7 mph SW1.1 kmh SW 3.1 mph5.0 kmh 29.80 in1009.1 mb 0.00 in0.0 mm 0.00 in0.0 mm 0.00 in0.0 mm
04:06 AM 14.7°F-9.6°C 5.2°F-14.9°C 65% Calm Calm 3.1 mph5.0 kmh 29.80 in1009.1 mb 0.00 in0.0 mm 0.00 in0.0 mm 0.00 in0.0 mm
04:05 AM 14.7°F-9.6°C 5.2°F-14.9°C 65% Calm Calm 3.1 mph5.0 kmh 29.80 in1009.1 mb 0.00 in0.0 mm 0.00 in0.0 mm 0.00 in0.0 mm
04:04 AM 14.7°F-9.6°C 5.2°F-14.9°C 65% Calm Calm 3.1 mph5.0 kmh 29.80 in1009.1 mb 0.00 in0.0 mm 0.00 in0.0 mm 0.00 in0.0 mm
04:03 AM 14.7°F-9.6°C 5.2°F-14.9°C 65% 0.7 mph S1.1 kmh S 3.1 mph5.0 kmh 29.80 in1009.1 mb 0.00 in0.0 mm 0.00 in0.0 mm 0.00 in0.0 mm
04:02 AM 14.7°F-9.6°C 4.8°F-15.1°C 64% Calm Calm 1.6 mph2.6 kmh 29.80 in1009.1 mb 0.00 in0.0 mm 0.00 in0.0 mm 0.00 in0.0 mm
04:01 AM 14.7°F-9.6°C 4.8°F-15.1°C 64% Calm Calm 1.6 mph2.6 kmh 29.80 in1009.1 mb 0.00 in0.0 mm 0.00 in0.0 mm 0.00 in0.0 mm
04:00 AM 14.7°F-9.6°C 4.8°F-15.1°C 64% Calm Calm 1.6 mph2.6 kmh 29.80 in1009.1 mb 0.00 in0.0 mm 0.00 in0.0 mm 0.00 in0.0 mm
03:59 AM 14.7°F-9.6°C 4.8°F-15.1°C 64% Calm Calm 1.6 mph2.6 kmh 29.80 in1009.1 mb 0.00 in0.0 mm 0.00 in0.0 mm 0.00 in0.0 mm
03:58 AM 14.7°F-9.6°C 4.8°F-15.1°C 64% Calm Calm 1.6 mph2.6 kmh 29.80 in1009.1 mb 0.00 in0.0 mm 0.00 in0.0 mm 0.00 in0.0 mm
03:57 AM 14.7°F-9.6°C 4.8°F-15.1°C 64% Calm Calm 1.6 mph2.6 kmh 29.80 in1009.1 mb 0.00 in0.0 mm 0.00 in0.0 mm 0.00 in0.0 mm
03:56 AM 14.7°F-9.6°C 4.8°F-15.1°C 64% Calm Calm 1.6 mph2.6 kmh 29.80 in1009.1 mb 0.00 in0.0 mm 0.00 in0.0 mm 0.00 in0.0 mm
03:55 AM 14.7°F-9.6°C 4.8°F-15.1°C 64% Calm Calm 1.6 mph2.6 kmh 29.80 in1009.1 mb 0.00 in0.0 mm 0.00 in0.0 mm 0.00 in0.0 mm
03:54 AM 14.7°F-9.6°C 4.8°F-15.1°C 64% Calm Calm 1.6 mph2.6 kmh 29.80 in1009.1 mb 0.00 in0.0 mm 0.00 in0.0 mm 0.00 in0.0 mm
03:53 AM 14.7°F-9.6°C 4.8°F-15.1°C 64% Calm Calm 1.6 mph2.6 kmh 29.80 in1009.1 mb 0.00 in0.0 mm 0.00 in0.0 mm 0.00 in0.0 mm
03:52 AM 14.7°F-9.6°C 4.8°F-15.1°C 64% Calm Calm 1.6 mph2.6 kmh 29.80 in1009.1 mb 0.00 in0.0 mm 0.00 in0.0 mm 0.00 in0.0 mm
03:51 AM 14.7°F-9.6°C 4.8°F-15.1°C 64% Calm Calm 1.6 mph2.6 kmh 29.80 in1009.1 mb 0.00 in0.0 mm 0.00 in0.0 mm 0.00 in0.0 mm
03:50 AM 14.7°F-9.6°C 4.8°F-15.1°C 64% Calm Calm 1.6 mph2.6 kmh 29.80 in1009.1 mb 0.00 in0.0 mm 0.00 in0.0 mm 0.00 in0.0 mm
03:49 AM 14.7°F-9.6°C 4.8°F-15.1°C 64% Calm Calm 2.2 mph3.5 kmh 29.80 in1009.1 mb 0.00 in0.0 mm 0.00 in0.0 mm 0.00 in0.0 mm
03:48 AM 14.7°F-9.6°C 4.8°F-15.1°C 64% Calm Calm 2.2 mph3.5 kmh 29.80 in1009.1 mb 0.00 in0.0 mm 0.00 in0.0 mm 0.00 in0.0 mm
03:47 AM 14.7°F-9.6°C 4.8°F-15.1°C 64% Calm Calm 2.2 mph3.5 kmh 29.80 in1009.1 mb 0.00 in0.0 mm 0.00 in0.0 mm 0.00 in0.0 mm
03:46 AM 14.7°F-9.6°C 4.8°F-15.1°C 64% Calm Calm 2.2 mph3.5 kmh 29.80 in1009.1 mb 0.00 in0.0 mm 0.00 in0.0 mm 0.00 in0.0 mm
03:45 AM 14.7°F-9.6°C 4.8°F-15.1°C 64% Calm Calm 2.2 mph3.5 kmh 29.80 in1009.1 mb 0.00 in0.0 mm 0.00 in0.0 mm 0.00 in0.0 mm
03:44 AM 14.7°F-9.6°C 4.8°F-15.1°C 64% Calm Calm 2.2 mph3.5 kmh 29.80 in1009.1 mb 0.00 in0.0 mm 0.00 in0.0 mm 0.00 in0.0 mm
03:43 AM 14.7°F-9.6°C 4.8°F-15.1°C 64% Calm Calm 2.2 mph3.5 kmh 29.80 in1009.1 mb 0.00 in0.0 mm 0.00 in0.0 mm 0.00 in0.0 mm
03:42 AM 14.7°F-9.6°C 4.8°F-15.1°C 64% Calm Calm 2.2 mph3.5 kmh 29.80 in1009.1 mb 0.00 in0.0 mm 0.00 in0.0 mm 0.00 in0.0 mm
03:41 AM 14.7°F-9.6°C 4.8°F-15.1°C 64% Calm Calm 2.2 mph3.5 kmh 29.80 in1009.1 mb 0.00 in0.0 mm 0.00 in0.0 mm 0.00 in0.0 mm
03:40 AM 14.7°F-9.6°C 4.8°F-15.1°C 64% 0.7 mph SSE1.1 kmh SSE 3.1 mph5.0 kmh 29.80 in1009.1 mb 0.00 in0.0 mm 0.00 in0.0 mm 0.00 in0.0 mm
03:39 AM 14.7°F-9.6°C 4.8°F-15.1°C 64% 1.6 mph SW2.6 kmh SW 3.1 mph5.0 kmh 29.80 in1009.1 mb 0.00 in0.0 mm 0.00 in0.0 mm 0.00 in0.0 mm
03:38 AM 14.9°F-9.5°C 5.0°F-15.0°C 64% Calm Calm 3.1 mph5.0 kmh 29.80 in1009.1 mb 0.00 in0.0 mm 0.00 in0.0 mm 0.00 in0.0 mm
03:37 AM 14.9°F-9.5°C 5.0°F-15.0°C 64% Calm Calm 3.1 mph5.0 kmh 29.80 in1009.1 mb 0.00 in0.0 mm 0.00 in0.0 mm 0.00 in0.0 mm
03:36 AM 14.9°F-9.5°C 5.3°F-14.8°C 65% Calm Calm 3.1 mph5.0 kmh 29.80 in1009.1 mb 0.00 in0.0 mm 0.00 in0.0 mm 0.00 in0.0 mm
03:35 AM 14.7°F-9.6°C 5.2°F-14.9°C 65% Calm Calm 3.1 mph5.0 kmh 29.80 in1009.1 mb 0.00 in0.0 mm 0.00 in0.0 mm 0.00 in0.0 mm
03:34 AM 14.7°F-9.6°C 5.2°F-14.9°C 65% Calm Calm 3.1 mph5.0 kmh 29.80 in1009.1 mb 0.00 in0.0 mm 0.00 in0.0 mm 0.00 in0.0 mm
03:33 AM 14.7°F-9.6°C 5.2°F-14.9°C 65% Calm Calm 3.1 mph5.0 kmh 29.79 in1008.8 mb 0.00 in0.0 mm 0.00 in0.0 mm 0.00 in0.0 mm
03:32 AM 14.7°F-9.6°C 5.2°F-14.9°C 65% Calm Calm 3.1 mph5.0 kmh 29.79 in1008.8 mb 0.00 in0.0 mm 0.00 in0.0 mm 0.00 in0.0 mm
03:31 AM 14.7°F-9.6°C 5.2°F-14.9°C 65% Calm Calm 3.1 mph5.0 kmh 29.80 in1009.1 mb 0.00 in0.0 mm 0.00 in0.0 mm 0.00 in0.0 mm
03:30 AM 14.7°F-9.6°C 5.2°F-14.9°C 65% 1.6 mph SSW2.6 kmh SSW 3.1 mph5.0 kmh 29.80 in1009.1 mb 0.00 in0.0 mm 0.00 in0.0 mm 0.00 in0.0 mm
03:29 AM 14.7°F-9.6°C 5.2°F-14.9°C 65% Calm Calm 1.6 mph2.6 kmh 29.80 in1009.1 mb 0.00 in0.0 mm 0.00 in0.0 mm 0.00 in0.0 mm
03:28 AM 14.7°F-9.6°C 5.2°F-14.9°C 65% Calm Calm 1.6 mph2.6 kmh 29.80 in1009.1 mb 0.00 in0.0 mm 0.00 in0.0 mm 0.00 in0.0 mm
03:27 AM 14.7°F-9.6°C 5.2°F-14.9°C 65% Calm Calm 1.6 mph2.6 kmh 29.79 in1008.8 mb 0.00 in0.0 mm 0.00 in0.0 mm 0.00 in0.0 mm
03:26 AM 14.7°F-9.6°C 5.2°F-14.9°C 65% 0.7 mph S1.1 kmh S 1.6 mph2.6 kmh 29.80 in1009.1 mb 0.00 in0.0 mm 0.00 in0.0 mm 0.00 in0.0 mm
03:25 AM 14.7°F-9.6°C 5.2°F-14.9°C 65% Calm Calm 0.7 mph1.1 kmh 29.80 in1009.1 mb 0.00 in0.0 mm 0.00 in0.0 mm 0.00 in0.0 mm
03:24 AM 14.7°F-9.6°C 5.2°F-14.9°C 65% Calm Calm 0.7 mph1.1 kmh 29.80 in1009.1 mb 0.00 in0.0 mm 0.00 in0.0 mm 0.00 in0.0 mm
03:23 AM 14.7°F-9.6°C 5.2°F-14.9°C 65% Calm Calm 0.7 mph1.1 kmh 29.80 in1009.1 mb 0.00 in0.0 mm 0.00 in0.0 mm 0.00 in0.0 mm
03:22 AM 14.7°F-9.6°C 5.2°F-14.9°C 65% Calm Calm 2.2 mph3.5 kmh 29.80 in1009.1 mb 0.00 in0.0 mm 0.00 in0.0 mm 0.00 in0.0 mm
03:21 AM 14.7°F-9.6°C 5.2°F-14.9°C 65% Calm Calm 2.2 mph3.5 kmh 29.80 in1009.1 mb 0.00 in0.0 mm 0.00 in0.0 mm 0.00 in0.0 mm
03:20 AM 14.7°F-9.6°C 5.2°F-14.9°C 65% Calm Calm 2.2 mph3.5 kmh 29.80 in1009.1 mb 0.00 in0.0 mm 0.00 in0.0 mm 0.00 in0.0 mm
03:19 AM 14.7°F-9.6°C 5.2°F-14.9°C 65% Calm Calm 2.2 mph3.5 kmh 29.80 in1009.1 mb 0.00 in0.0 mm 0.00 in0.0 mm 0.00 in0.0 mm
03:18 AM 14.7°F-9.6°C 5.2°F-14.9°C 65% Calm Calm 2.2 mph3.5 kmh 29.80 in1009.1 mb 0.00 in0.0 mm 0.00 in0.0 mm 0.00 in0.0 mm
03:17 AM 14.7°F-9.6°C 5.2°F-14.9°C 65% Calm Calm 2.2 mph3.5 kmh 29.80 in1009.1 mb 0.00 in0.0 mm 0.00 in0.0 mm 0.00 in0.0 mm
03:16 AM 14.7°F-9.6°C 5.2°F-14.9°C 65% Calm Calm 2.2 mph3.5 kmh 29.79 in1008.8 mb 0.00 in0.0 mm 0.00 in0.0 mm 0.00 in0.0 mm
03:15 AM 14.7°F-9.6°C 5.2°F-14.9°C 65% Calm Calm 2.2 mph3.5 kmh 29.80 in1009.1 mb 0.00 in0.0 mm 0.00 in0.0 mm 0.00 in0.0 mm
03:14 AM 14.7°F-9.6°C 5.2°F-14.9°C 65% Calm Calm 2.2 mph3.5 kmh 29.79 in1008.8 mb 0.00 in0.0 mm 0.00 in0.0 mm 0.00 in0.0 mm
03:13 AM 14.7°F-9.6°C 5.2°F-14.9°C 65% Calm Calm 2.2 mph3.5 kmh 29.79 in1008.8 mb 0.00 in0.0 mm 0.00 in0.0 mm 0.00 in0.0 mm
03:12 AM 14.7°F-9.6°C 5.2°F-14.9°C 65% 0.7 mph SSW1.1 kmh SSW 2.2 mph3.5 kmh 29.79 in1008.8 mb 0.00 in0.0 mm 0.00 in0.0 mm 0.00 in0.0 mm
03:11 AM 14.7°F-9.6°C 5.2°F-14.9°C 65% 0.7 mph SSW1.1 kmh SSW 1.6 mph2.6 kmh 29.79 in1008.8 mb 0.00 in0.0 mm 0.00 in0.0 mm 0.00 in0.0 mm
03:10 AM 14.7°F-9.6°C 5.2°F-14.9°C 65% Calm Calm 0.7 mph1.1 kmh 29.79 in1008.8 mb 0.00 in0.0 mm 0.00 in0.0 mm 0.00 in0.0 mm
03:09 AM 14.7°F-9.6°C 5.2°F-14.9°C 65% Calm Calm 2.2 mph3.5 kmh 29.79 in1008.8 mb 0.00 in0.0 mm 0.00 in0.0 mm 0.00 in0.0 mm
03:08 AM 14.7°F-9.6°C 5.2°F-14.9°C 65% Calm Calm 2.2 mph3.5 kmh 29.79 in1008.8 mb 0.00 in0.0 mm 0.00 in0.0 mm 0.00 in0.0 mm
03:07 AM 14.7°F-9.6°C 5.2°F-14.9°C 65% Calm Calm 2.2 mph3.5 kmh 29.79 in1008.8 mb 0.00 in0.0 mm 0.00 in0.0 mm 0.00 in0.0 mm
03:06 AM 14.9°F-9.5°C 5.3°F-14.8°C 65% Calm Calm 2.2 mph3.5 kmh 29.79 in1008.8 mb 0.00 in0.0 mm 0.00 in0.0 mm 0.00 in0.0 mm
03:05 AM 14.9°F-9.5°C 5.3°F-14.8°C 65% Calm Calm 2.2 mph3.5 kmh 29.79 in1008.8 mb 0.00 in0.0 mm 0.00 in0.0 mm 0.00 in0.0 mm
03:04 AM 14.9°F-9.5°C 5.3°F-14.8°C 65% Calm Calm 3.1 mph5.0 kmh 29.79 in1008.8 mb 0.00 in0.0 mm 0.00 in0.0 mm 0.00 in0.0 mm
03:03 AM 14.9°F-9.5°C 5.3°F-14.8°C 65% Calm Calm 3.1 mph5.0 kmh 29.79 in1008.8 mb 0.00 in0.0 mm 0.00 in0.0 mm 0.00 in0.0 mm
03:02 AM 14.9°F-9.5°C 5.3°F-14.8°C 65% Calm Calm 3.1 mph5.0 kmh 29.79 in1008.8 mb 0.00 in0.0 mm 0.00 in0.0 mm 0.00 in0.0 mm
03:01 AM 14.9°F-9.5°C 5.3°F-14.8°C 65% Calm Calm 3.1 mph5.0 kmh 29.79 in1008.8 mb 0.00 in0.0 mm 0.00 in0.0 mm 0.00 in0.0 mm
03:00 AM 14.9°F-9.5°C 5.3°F-14.8°C 65% Calm Calm 3.1 mph5.0 kmh 29.79 in1008.8 mb 0.00 in0.0 mm 0.00 in0.0 mm 0.00 in0.0 mm
02:59 AM 14.9°F-9.5°C 5.3°F-14.8°C 65% 1.6 mph WNW2.6 kmh WNW 3.1 mph5.0 kmh 29.78 in1008.5 mb 0.00 in0.0 mm 0.00 in0.0 mm 0.00 in0.0 mm
02:58 AM 14.9°F-9.5°C 5.3°F-14.8°C 65% Calm Calm 3.1 mph5.0 kmh 29.79 in1008.8 mb 0.00 in0.0 mm 0.00 in0.0 mm 0.00 in0.0 mm
02:57 AM 14.9°F-9.5°C 5.3°F-14.8°C 65% Calm Calm 3.1 mph5.0 kmh 29.79 in1008.8 mb 0.00 in0.0 mm 0.00 in0.0 mm 0.00 in0.0 mm
02:56 AM 15.1°F-9.4°C 5.5°F-14.7°C 65% Calm Calm 3.1 mph5.0 kmh 29.79 in1008.8 mb 0.00 in0.0 mm 0.00 in0.0 mm 0.00 in0.0 mm
02:55 AM 15.1°F-9.4°C 5.5°F-14.7°C 65% 1.6 mph WSW2.6 kmh WSW 3.1 mph5.0 kmh 29.79 in1008.8 mb 0.00 in0.0 mm 0.00 in0.0 mm 0.00 in0.0 mm
02:54 AM 15.1°F-9.4°C 5.5°F-14.7°C 65% 1.6 mph S2.6 kmh S 3.1 mph5.0 kmh 29.79 in1008.8 mb 0.00 in0.0 mm 0.00 in0.0 mm 0.00 in0.0 mm
02:53 AM 15.1°F-9.4°C 5.5°F-14.7°C 65% Calm Calm 2.2 mph3.5 kmh 29.78 in1008.5 mb 0.00 in0.0 mm 0.00 in0.0 mm 0.00 in0.0 mm
02:52 AM 15.1°F-9.4°C 5.5°F-14.7°C 65% Calm Calm 2.2 mph3.5 kmh 29.78 in1008.5 mb 0.00 in0.0 mm 0.00 in0.0 mm 0.00 in0.0 mm
02:51 AM 15.1°F-9.4°C 5.5°F-14.7°C 65% Calm Calm 2.2 mph3.5 kmh 29.79 in1008.8 mb 0.00 in0.0 mm 0.00 in0.0 mm 0.00 in0.0 mm
02:50 AM 15.3°F-9.3°C 5.7°F-14.6°C 65% Calm Calm 1.6 mph2.6 kmh 29.79 in1008.8 mb 0.00 in0.0 mm 0.00 in0.0 mm 0.00 in0.0 mm
02:49 AM 15.3°F-9.3°C 5.7°F-14.6°C 65% Calm Calm 1.6 mph2.6 kmh 29.79 in1008.8 mb 0.00 in0.0 mm 0.00 in0.0 mm 0.00 in0.0 mm
02:48 AM 15.3°F-9.3°C 5.7°F-14.6°C 65% Calm Calm 1.6 mph2.6 kmh 29.79 in1008.8 mb 0.00 in0.0 mm 0.00 in0.0 mm 0.00 in0.0 mm
02:47 AM 15.3°F-9.3°C 5.7°F-14.6°C 65% Calm Calm 1.6 mph2.6 kmh 29.78 in1008.5 mb 0.00 in0.0 mm 0.00 in0.0 mm 0.00 in0.0 mm
02:46 AM 15.3°F-9.3°C 5.7°F-14.6°C 65% Calm Calm 1.6 mph2.6 kmh 29.79 in1008.8 mb 0.00 in0.0 mm 0.00 in0.0 mm 0.00 in0.0 mm
02:45 AM 15.3°F-9.3°C 5.7°F-14.6°C 65% Calm Calm 1.6 mph2.6 kmh 29.79 in1008.8 mb 0.00 in0.0 mm 0.00 in0.0 mm 0.00 in0.0 mm
02:44 AM 15.3°F-9.3°C 5.7°F-14.6°C 65% Calm Calm 1.6 mph2.6 kmh 29.79 in1008.8 mb 0.00 in0.0 mm 0.00 in0.0 mm 0.00 in0.0 mm
02:43 AM 15.4°F-9.2°C 5.8°F-14.6°C 65% Calm Calm 1.6 mph2.6 kmh 29.79 in1008.8 mb 0.00 in0.0 mm 0.00 in0.0 mm 0.00 in0.0 mm
02:42 AM 15.4°F-9.2°C 5.8°F-14.6°C 65% Calm Calm 1.6 mph2.6 kmh 29.78 in1008.5 mb 0.00 in0.0 mm 0.00 in0.0 mm 0.00 in0.0 mm
02:41 AM 15.4°F-9.2°C 5.8°F-14.6°C 65% Calm Calm 1.6 mph2.6 kmh 29.79 in1008.8 mb 0.00 in0.0 mm 0.00 in0.0 mm 0.00 in0.0 mm
02:40 AM 15.4°F-9.2°C 5.8°F-14.6°C 65% Calm Calm 1.6 mph2.6 kmh 29.79 in1008.8 mb 0.00 in0.0 mm 0.00 in0.0 mm 0.00 in0.0 mm
02:39 AM 15.4°F-9.2°C 5.8°F-14.6°C 65% Calm Calm 1.6 mph2.6 kmh 29.78 in1008.5 mb 0.00 in0.0 mm 0.00 in0.0 mm 0.00 in0.0 mm
02:38 AM 15.4°F-9.2°C 5.8°F-14.6°C 65% Calm Calm 1.6 mph2.6 kmh 29.79 in1008.8 mb 0.00 in0.0 mm 0.00 in0.0 mm 0.00 in0.0 mm
02:37 AM 15.6°F-9.1°C 6.0°F-14.4°C 65% Calm Calm 1.6 mph2.6 kmh 29.79 in1008.8 mb 0.00 in0.0 mm 0.00 in0.0 mm 0.00 in0.0 mm
02:36 AM 15.6°F-9.1°C 6.0°F-14.4°C 65% Calm Calm 1.6 mph2.6 kmh 29.79 in1008.8 mb 0.00 in0.0 mm 0.00 in0.0 mm 0.00 in0.0 mm
02:35 AM 15.6°F-9.1°C 6.0°F-14.4°C 65% Calm Calm 1.6 mph2.6 kmh 29.79 in1008.8 mb 0.00 in0.0 mm 0.00 in0.0 mm 0.00 in0.0 mm
02:34 AM 15.6°F-9.1°C 6.4°F-14.2°C 66% Calm Calm 1.6 mph2.6 kmh 29.79 in1008.8 mb 0.00 in0.0 mm 0.00 in0.0 mm 0.00 in0.0 mm
02:33 AM 15.6°F-9.1°C 6.4°F-14.2°C 66% Calm Calm 1.6 mph2.6 kmh 29.79 in1008.8 mb 0.00 in0.0 mm 0.00 in0.0 mm 0.00 in0.0 mm
02:32 AM 15.6°F-9.1°C 6.4°F-14.2°C 66% Calm Calm 1.6 mph2.6 kmh 29.79 in1008.8 mb 0.00 in0.0 mm 0.00 in0.0 mm 0.00 in0.0 mm
02:31 AM 15.6°F-9.1°C 6.4°F-14.2°C 66% Calm Calm 1.6 mph2.6 kmh 29.79 in1008.8 mb 0.00 in0.0 mm 0.00 in0.0 mm 0.00 in0.0 mm
02:30 AM 15.8°F-9.0°C 6.2°F-14.3°C 65% 0.7 mph SSE1.1 kmh SSE 3.1 mph5.0 kmh 29.78 in1008.5 mb 0.00 in0.0 mm 0.00 in0.0 mm 0.00 in0.0 mm
02:29 AM 15.8°F-9.0°C 6.2°F-14.3°C 65% Calm Calm 3.1 mph5.0 kmh 29.79 in1008.8 mb 0.00 in0.0 mm 0.00 in0.0 mm 0.00 in0.0 mm
02:28 AM 15.8°F-9.0°C 6.5°F-14.2°C 66% Calm Calm 3.1 mph5.0 kmh 29.78 in1008.5 mb 0.00 in0.0 mm 0.00 in0.0 mm 0.00 in0.0 mm
02:27 AM 15.8°F-9.0°C 6.5°F-14.2°C 66% Calm Calm 3.1 mph5.0 kmh 29.79 in1008.8 mb 0.00 in0.0 mm 0.00 in0.0 mm 0.00 in0.0 mm
02:26 AM 15.8°F-9.0°C 6.5°F-14.2°C 66% Calm Calm 3.1 mph5.0 kmh 29.78 in1008.5 mb 0.00 in0.0 mm 0.00 in0.0 mm 0.00 in0.0 mm
02:25 AM 15.8°F-9.0°C 6.5°F-14.2°C 66% Calm Calm 3.1 mph5.0 kmh 29.79 in1008.8 mb 0.00 in0.0 mm 0.00 in0.0 mm 0.00 in0.0 mm
02:24 AM 16.0°F-8.9°C 7.0°F-13.9°C 67% 0.7 mph SE1.1 kmh SE 3.1 mph5.0 kmh 29.78 in1008.5 mb 0.00 in0.0 mm 0.00 in0.0 mm 0.00 in0.0 mm
02:23 AM 16.0°F-8.9°C 7.0°F-13.9°C 67% 0.7 mph SE1.1 kmh SE 3.1 mph5.0 kmh 29.78 in1008.5 mb 0.00 in0.0 mm 0.00 in0.0 mm 0.00 in0.0 mm
02:22 AM 16.0°F-8.9°C 7.0°F-13.9°C 67% Calm Calm 3.1 mph5.0 kmh 29.79 in1008.8 mb 0.00 in0.0 mm 0.00 in0.0 mm 0.00 in0.0 mm
02:21 AM 16.0°F-8.9°C 7.0°F-13.9°C 67% Calm Calm 3.1 mph5.0 kmh 29.78 in1008.5 mb 0.00 in0.0 mm 0.00 in0.0 mm 0.00 in0.0 mm
02:20 AM 16.0°F-8.9°C 7.0°F-13.9°C 67% 1.6 mph SE2.6 kmh SE 3.1 mph5.0 kmh 29.79 in1008.8 mb 0.00 in0.0 mm 0.00 in0.0 mm 0.00 in0.0 mm
02:19 AM 16.0°F-8.9°C 7.0°F-13.9°C 67% Calm Calm 2.2 mph3.5 kmh 29.78 in1008.5 mb 0.00 in0.0 mm 0.00 in0.0 mm 0.00 in0.0 mm
02:18 AM 16.0°F-8.9°C 7.0°F-13.9°C 67% Calm Calm 2.2 mph3.5 kmh 29.79 in1008.8 mb 0.00 in0.0 mm 0.00 in0.0 mm 0.00 in0.0 mm
02:17 AM 16.0°F-8.9°C 7.4°F-13.7°C 68% Calm Calm 2.2 mph3.5 kmh 29.79 in1008.8 mb 0.00 in0.0 mm 0.00 in0.0 mm 0.00 in0.0 mm
02:16 AM 16.0°F-8.9°C 7.4°F-13.7°C 68% Calm Calm 2.2 mph3.5 kmh 29.79 in1008.8 mb 0.00 in0.0 mm 0.00 in0.0 mm 0.00 in0.0 mm
02:15 AM 16.0°F-8.9°C 7.4°F-13.7°C 68% 0.7 mph S1.1 kmh S 4.5 mph7.2 kmh 29.79 in1008.8 mb 0.00 in0.0 mm 0.00 in0.0 mm 0.00 in0.0 mm
02:14 AM 16.0°F-8.9°C 7.4°F-13.7°C 68% Calm Calm 4.5 mph7.2 kmh 29.79 in1008.8 mb 0.00 in0.0 mm 0.00 in0.0 mm 0.00 in0.0 mm
02:13 AM 16.0°F-8.9°C 7.7°F-13.5°C 69% Calm Calm 4.5 mph7.2 kmh 29.80 in1009.1 mb 0.00 in0.0 mm 0.00 in0.0 mm 0.00 in0.0 mm
02:12 AM 16.0°F-8.9°C 7.7°F-13.5°C 69% Calm Calm 4.5 mph7.2 kmh 29.79 in1008.8 mb 0.00 in0.0 mm 0.00 in0.0 mm 0.00 in0.0 mm
02:11 AM 16.0°F-8.9°C 7.7°F-13.5°C 69% Calm Calm 4.5 mph7.2 kmh 29.79 in1008.8 mb 0.00 in0.0 mm 0.00 in0.0 mm 0.00 in0.0 mm
02:10 AM 16.0°F-8.9°C 7.7°F-13.5°C 69% 1.6 mph N2.6 kmh N 4.5 mph7.2 kmh 29.79 in1008.8 mb 0.00 in0.0 mm 0.00 in0.0 mm 0.00 in0.0 mm
02:09 AM 16.0°F-8.9°C 7.7°F-13.5°C 69% 1.6 mph NNE2.6 kmh NNE 4.5 mph7.2 kmh 29.80 in1009.1 mb 0.00 in0.0 mm 0.00 in0.0 mm 0.00 in0.0 mm
02:08 AM 16.2°F-8.8°C 7.8°F-13.4°C 69% Calm Calm 4.5 mph7.2 kmh 29.79 in1008.8 mb 0.00 in0.0 mm 0.00 in0.0 mm 0.00 in0.0 mm
02:07 AM 16.2°F-8.8°C 7.8°F-13.4°C 69% Calm Calm 4.5 mph7.2 kmh 29.79 in1008.8 mb 0.00 in0.0 mm 0.00 in0.0 mm 0.00 in0.0 mm
02:06 AM 16.2°F-8.8°C 7.8°F-13.4°C 69% Calm Calm 4.5 mph7.2 kmh 29.78 in1008.5 mb 0.00 in0.0 mm 0.00 in0.0 mm 0.00 in0.0 mm
02:05 AM 16.2°F-8.8°C 7.8°F-13.4°C 69% 1.6 mph NE2.6 kmh NE 4.5 mph7.2 kmh 29.79 in1008.8 mb 0.00 in0.0 mm 0.00 in0.0 mm 0.00 in0.0 mm
02:04 AM 16.2°F-8.8°C 7.8°F-13.4°C 69% 1.6 mph NE2.6 kmh NE 4.5 mph7.2 kmh 29.79 in1008.8 mb 0.00 in0.0 mm 0.00 in0.0 mm 0.00 in0.0 mm
02:03 AM 16.2°F-8.8°C 7.8°F-13.4°C 69% 1.6 mph ENE2.6 kmh ENE 4.5 mph7.2 kmh 29.79 in1008.8 mb 0.00 in0.0 mm 0.00 in0.0 mm 0.00 in0.0 mm
02:02 AM 16.2°F-8.8°C 7.8°F-13.4°C 69% 1.6 mph E2.6 kmh E 4.5 mph7.2 kmh 29.79 in1008.8 mb 0.00 in0.0 mm 0.00 in0.0 mm 0.00 in0.0 mm
02:01 AM 16.2°F-8.8°C 7.8°F-13.4°C 69% 0.7 mph ESE1.1 kmh ESE 2.2 mph3.5 kmh 29.79 in1008.8 mb 0.00 in0.0 mm 0.00 in0.0 mm 0.00 in0.0 mm
02:00 AM 16.3°F-8.7°C 8.3°F-13.2°C 70% 0.7 mph ESE1.1 kmh ESE 2.2 mph3.5 kmh 29.79 in1008.8 mb 0.00 in0.0 mm 0.00 in0.0 mm 0.00 in0.0 mm
01:59 AM 16.3°F-8.7°C 8.3°F-13.2°C 70% 0.7 mph SE1.1 kmh SE 2.2 mph3.5 kmh 29.79 in1008.8 mb 0.00 in0.0 mm 0.00 in0.0 mm 0.00 in0.0 mm
01:58 AM 16.3°F-8.7°C 8.3°F-13.2°C 70% 0.7 mph SSE1.1 kmh SSE 2.2 mph3.5 kmh 29.79 in1008.8 mb 0.00 in0.0 mm 0.00 in0.0 mm 0.00 in0.0 mm
01:57 AM 16.3°F-8.7°C 8.3°F-13.2°C 70% 0.7 mph SW1.1 kmh SW 2.2 mph3.5 kmh 29.79 in1008.8 mb 0.00 in0.0 mm 0.00 in0.0 mm 0.00 in0.0 mm
01:56 AM 16.3°F-8.7°C 8.3°F-13.2°C 70% 0.7 mph WSW1.1 kmh WSW 2.2 mph3.5 kmh 29.79 in1008.8 mb 0.00 in0.0 mm 0.00 in0.0 mm 0.00 in0.0 mm
01:55 AM 16.5°F-8.6°C 8.5°F-13.1°C 70% 0.7 mph WSW1.1 kmh WSW 1.6 mph2.6 kmh 29.79 in1008.8 mb 0.00 in0.0 mm 0.00 in0.0 mm 0.00 in0.0 mm
01:54 AM 16.5°F-8.6°C 8.5°F-13.1°C 70% Calm Calm 1.6 mph2.6 kmh 29.79 in1008.8 mb 0.00 in0.0 mm 0.00 in0.0 mm 0.00 in0.0 mm
01:53 AM 16.5°F-8.6°C 8.5°F-13.1°C 70% Calm Calm 1.6 mph2.6 kmh 29.78 in1008.5 mb 0.00 in0.0 mm 0.00 in0.0 mm 0.00 in0.0 mm
01:52 AM 16.5°F-8.6°C 8.5°F-13.1°C 70% Calm Calm 1.6 mph2.6 kmh 29.78 in1008.5 mb 0.00 in0.0 mm 0.00 in0.0 mm 0.00 in0.0 mm
01:51 AM 16.5°F-8.6°C 8.5°F-13.1°C 70% Calm Calm 1.6 mph2.6 kmh 29.79 in1008.8 mb 0.00 in0.0 mm 0.00 in0.0 mm 0.00 in0.0 mm
01:50 AM 16.7°F-8.5°C 8.7°F-12.9°C 70% Calm Calm 3.1 mph5.0 kmh 29.79 in1008.8 mb 0.00 in0.0 mm 0.00 in0.0 mm 0.00 in0.0 mm
01:49 AM 16.7°F-8.5°C 8.7°F-12.9°C 70% 0.7 mph WSW1.1 kmh WSW 3.1 mph5.0 kmh 29.79 in1008.8 mb 0.00 in0.0 mm 0.00 in0.0 mm 0.00 in0.0 mm
01:48 AM 16.7°F-8.5°C 8.7°F-12.9°C 70% Calm Calm 3.8 mph6.1 kmh 29.78 in1008.5 mb 0.00 in0.0 mm 0.00 in0.0 mm 0.00 in0.0 mm
01:47 AM 16.7°F-8.5°C 8.7°F-12.9°C 70% Calm Calm 3.8 mph6.1 kmh 29.79 in1008.8 mb 0.00 in0.0 mm 0.00 in0.0 mm 0.00 in0.0 mm
01:46 AM 16.7°F-8.5°C 8.7°F-12.9°C 70% Calm Calm 3.8 mph6.1 kmh 29.79 in1008.8 mb 0.00 in0.0 mm 0.00 in0.0 mm 0.00 in0.0 mm
01:45 AM 16.7°F-8.5°C 8.7°F-12.9°C 70% 0.7 mph SW1.1 kmh SW 3.8 mph6.1 kmh 29.78 in1008.5 mb 0.00 in0.0 mm 0.00 in0.0 mm 0.00 in0.0 mm
01:44 AM 16.9°F-8.4°C 8.9°F-12.8°C 70% Calm Calm 3.8 mph6.1 kmh 29.79 in1008.8 mb 0.00 in0.0 mm 0.00 in0.0 mm 0.00 in0.0 mm
01:43 AM 16.9°F-8.4°C 8.9°F-12.8°C 70% Calm Calm 3.8 mph6.1 kmh 29.79 in1008.8 mb 0.00 in0.0 mm 0.00 in0.0 mm 0.00 in0.0 mm
01:42 AM 16.9°F-8.4°C 8.9°F-12.8°C 70% Calm Calm 3.8 mph6.1 kmh 29.79 in1008.8 mb 0.00 in0.0 mm 0.00 in0.0 mm 0.00 in0.0 mm
01:41 AM 16.9°F-8.4°C 8.9°F-12.8°C 70% Calm Calm 3.8 mph6.1 kmh 29.79 in1008.8 mb 0.00 in0.0 mm 0.00 in0.0 mm 0.00 in0.0 mm
01:40 AM 16.9°F-8.4°C 9.2°F-12.7°C 71% 1.6 mph SSW2.6 kmh SSW 3.8 mph6.1 kmh 29.79 in1008.8 mb 0.00 in0.0 mm 0.00 in0.0 mm 0.00 in0.0 mm
01:39 AM 17.1°F-8.3°C 9.3°F-12.6°C 71% Calm Calm 3.8 mph6.1 kmh 29.79 in1008.8 mb 0.00 in0.0 mm 0.00 in0.0 mm 0.00 in0.0 mm
01:38 AM 17.1°F-8.3°C 9.3°F-12.6°C 71% 0.7 mph SSW1.1 kmh SSW 3.8 mph6.1 kmh 29.80 in1009.1 mb 0.00 in0.0 mm 0.00 in0.0 mm 0.00 in0.0 mm
01:37 AM 17.1°F-8.3°C 9.3°F-12.6°C 71% Calm Calm 3.8 mph6.1 kmh 29.79 in1008.8 mb 0.00 in0.0 mm 0.00 in0.0 mm 0.00 in0.0 mm
01:36 AM 17.1°F-8.3°C 9.3°F-12.6°C 71% Calm Calm 3.8 mph6.1 kmh 29.78 in1008.5 mb 0.00 in0.0 mm 0.00 in0.0 mm 0.00 in0.0 mm
01:35 AM 17.1°F-8.3°C 9.3°F-12.6°C 71% 0.7 mph S1.1 kmh S 3.8 mph6.1 kmh 29.79 in1008.8 mb 0.00 in0.0 mm 0.00 in0.0 mm 0.00 in0.0 mm
01:34 AM 17.2°F-8.2°C 9.5°F-12.5°C 71% Calm Calm 3.8 mph6.1 kmh 29.78 in1008.5 mb 0.00 in0.0 mm 0.00 in0.0 mm 0.00 in0.0 mm
01:33 AM 17.2°F-8.2°C 9.5°F-12.5°C 71% Calm Calm 3.8 mph6.1 kmh 29.79 in1008.8 mb 0.00 in0.0 mm 0.00 in0.0 mm 0.00 in0.0 mm
01:32 AM 17.2°F-8.2°C 9.5°F-12.5°C 71% Calm Calm 3.8 mph6.1 kmh 29.79 in1008.8 mb 0.00 in0.0 mm 0.00 in0.0 mm 0.00 in0.0 mm
01:31 AM 17.2°F-8.2°C 9.5°F-12.5°C 71% Calm Calm 3.8 mph6.1 kmh 29.79 in1008.8 mb 0.00 in0.0 mm 0.00 in0.0 mm 0.00 in0.0 mm
01:30 AM 17.2°F-8.2°C 9.5°F-12.5°C 71% 0.7 mph S1.1 kmh S 3.8 mph6.1 kmh 29.78 in1008.5 mb 0.00 in0.0 mm 0.00 in0.0 mm 0.00 in0.0 mm
01:29 AM 17.2°F-8.2°C 9.5°F-12.5°C 71% 1.6 mph S2.6 kmh S 3.1 mph5.0 kmh 29.79 in1008.8 mb 0.00 in0.0 mm 0.00 in0.0 mm 0.00 in0.0 mm
01:28 AM 17.2°F-8.2°C 9.5°F-12.5°C 71% 0.7 mph SSE1.1 kmh SSE 1.6 mph2.6 kmh 29.79 in1008.8 mb 0.00 in0.0 mm 0.00 in0.0 mm 0.00 in0.0 mm
01:27 AM 17.4°F-8.1°C 9.7°F-12.4°C 71% Calm Calm 2.2 mph3.5 kmh 29.78 in1008.5 mb 0.00 in0.0 mm 0.00 in0.0 mm 0.00 in0.0 mm
01:26 AM 17.4°F-8.1°C 9.7°F-12.4°C 71% 0.7 mph S1.1 kmh S 2.2 mph3.5 kmh 29.78 in1008.5 mb 0.00 in0.0 mm 0.00 in0.0 mm 0.00 in0.0 mm
01:25 AM 17.4°F-8.1°C 9.7°F-12.4°C 71% 0.7 mph S1.1 kmh S 2.2 mph3.5 kmh 29.78 in1008.5 mb 0.00 in0.0 mm 0.00 in0.0 mm 0.00 in0.0 mm
01:24 AM 17.4°F-8.1°C 9.7°F-12.4°C 71% Calm Calm 2.2 mph3.5 kmh 29.79 in1008.8 mb 0.00 in0.0 mm 0.00 in0.0 mm 0.00 in0.0 mm
01:23 AM 17.4°F-8.1°C 9.7°F-12.4°C 71% Calm Calm 2.2 mph3.5 kmh 29.79 in1008.8 mb 0.00 in0.0 mm 0.00 in0.0 mm 0.00 in0.0 mm
01:22 AM 17.4°F-8.1°C 9.7°F-12.4°C 71% Calm Calm 2.2 mph3.5 kmh 29.78 in1008.5 mb 0.00 in0.0 mm 0.00 in0.0 mm 0.00 in0.0 mm
01:21 AM 17.4°F-8.1°C 9.7°F-12.4°C 71% 0.7 mph S1.1 kmh S 2.2 mph3.5 kmh 29.79 in1008.8 mb 0.00 in0.0 mm 0.00 in0.0 mm 0.00 in0.0 mm
01:20 AM 17.4°F-8.1°C 9.7°F-12.4°C 71% 0.7 mph SSE1.1 kmh SSE 2.2 mph3.5 kmh 29.78 in1008.5 mb 0.00 in0.0 mm 0.00 in0.0 mm 0.00 in0.0 mm
01:19 AM 17.4°F-8.1°C 9.7°F-12.4°C 71% Calm Calm 2.2 mph3.5 kmh 29.79 in1008.8 mb 0.00 in0.0 mm 0.00 in0.0 mm 0.00 in0.0 mm
01:18 AM 17.4°F-8.1°C 9.7°F-12.4°C 71% Calm Calm 2.2 mph3.5 kmh 29.78 in1008.5 mb 0.00 in0.0 mm 0.00 in0.0 mm 0.00 in0.0 mm
01:17 AM 17.4°F-8.1°C 9.7°F-12.4°C 71% Calm Calm 2.2 mph3.5 kmh 29.78 in1008.5 mb 0.00 in0.0 mm 0.00 in0.0 mm 0.00 in0.0 mm
01:16 AM 17.4°F-8.1°C 9.7°F-12.4°C 71% Calm Calm 2.2 mph3.5 kmh 29.78 in1008.5 mb 0.00 in0.0 mm 0.00 in0.0 mm 0.00 in0.0 mm
01:15 AM 17.4°F-8.1°C 9.7°F-12.4°C 71% Calm Calm 2.2 mph3.5 kmh 29.78 in1008.5 mb 0.00 in0.0 mm 0.00 in0.0 mm 0.00 in0.0 mm
01:14 AM 17.4°F-8.1°C 9.7°F-12.4°C 71% Calm Calm 2.2 mph3.5 kmh 29.78 in1008.5 mb 0.00 in0.0 mm 0.00 in0.0 mm 0.00 in0.0 mm
01:13 AM 17.4°F-8.1°C 9.7°F-12.4°C 71% Calm Calm 2.2 mph3.5 kmh 29.78 in1008.5 mb 0.00 in0.0 mm 0.00 in0.0 mm 0.00 in0.0 mm
01:12 AM 17.8°F-7.9°C 9.7°F-12.4°C 70% 0.7 mph S1.1 kmh S 2.2 mph3.5 kmh 29.78 in1008.5 mb 0.00 in0.0 mm 0.00 in0.0 mm 0.00 in0.0 mm
01:11 AM 17.8°F-7.9°C 9.7°F-12.4°C 70% Calm Calm 2.2 mph3.5 kmh 29.79 in1008.8 mb 0.00 in0.0 mm 0.00 in0.0 mm 0.00 in0.0 mm
01:10 AM 17.8°F-7.9°C 9.7°F-12.4°C 70% 0.7 mph S1.1 kmh S 2.2 mph3.5 kmh 29.79 in1008.8 mb 0.00 in0.0 mm 0.00 in0.0 mm 0.00 in0.0 mm
01:09 AM 17.8°F-7.9°C 9.7°F-12.4°C 70% 0.7 mph S1.1 kmh S 2.2 mph3.5 kmh 29.79 in1008.8 mb 0.00 in0.0 mm 0.00 in0.0 mm 0.00 in0.0 mm
01:08 AM 17.8°F-7.9°C 9.7°F-12.4°C 70% 0.7 mph S1.1 kmh S 1.6 mph2.6 kmh 29.79 in1008.8 mb 0.00 in0.0 mm 0.00 in0.0 mm 0.00 in0.0 mm
01:07 AM 17.8°F-7.9°C 9.7°F-12.4°C 70% 0.7 mph S1.1 kmh S 1.6 mph2.6 kmh 29.79 in1008.8 mb 0.00 in0.0 mm 0.00 in0.0 mm 0.00 in0.0 mm
01:06 AM 17.8°F-7.9°C 9.7°F-12.4°C 70% 0.7 mph S1.1 kmh S 1.6 mph2.6 kmh 29.78 in1008.5 mb 0.00 in0.0 mm 0.00 in0.0 mm 0.00 in0.0 mm
01:05 AM 17.8°F-7.9°C 9.7°F-12.4°C 70% 0.7 mph S1.1 kmh S 1.6 mph2.6 kmh 29.79 in1008.8 mb 0.00 in0.0 mm 0.00 in0.0 mm 0.00 in0.0 mm
01:04 AM 17.8°F-7.9°C 9.7°F-12.4°C 70% 0.7 mph SSW1.1 kmh SSW 1.6 mph2.6 kmh 29.79 in1008.8 mb 0.00 in0.0 mm 0.00 in0.0 mm 0.00 in0.0 mm
01:03 AM 17.8°F-7.9°C 9.7°F-12.4°C 70% 0.7 mph SSW1.1 kmh SSW 1.6 mph2.6 kmh 29.79 in1008.8 mb 0.00 in0.0 mm 0.00 in0.0 mm 0.00 in0.0 mm
01:02 AM 17.8°F-7.9°C 9.7°F-12.4°C 70% 0.7 mph SSW1.1 kmh SSW 1.6 mph2.6 kmh 29.80 in1009.1 mb 0.00 in0.0 mm 0.00 in0.0 mm 0.00 in0.0 mm
01:01 AM 17.8°F-7.9°C 9.7°F-12.4°C 70% 0.7 mph SSW1.1 kmh SSW 1.6 mph2.6 kmh 29.78 in1008.5 mb 0.00 in0.0 mm 0.00 in0.0 mm 0.00 in0.0 mm
01:00 AM 17.8°F-7.9°C 9.7°F-12.4°C 70% 0.7 mph SW1.1 kmh SW 1.6 mph2.6 kmh 29.79 in1008.8 mb 0.00 in0.0 mm 0.00 in0.0 mm 0.00 in0.0 mm
12:59 AM 17.8°F-7.9°C 9.7°F-12.4°C 70% Calm Calm 1.6 mph2.6 kmh 29.78 in1008.5 mb 0.00 in0.0 mm 0.00 in0.0 mm 0.00 in0.0 mm
12:58 AM 17.8°F-7.9°C 9.4°F-12.6°C 69% Calm Calm 3.1 mph5.0 kmh 29.79 in1008.8 mb 0.00 in0.0 mm 0.00 in0.0 mm 0.00 in0.0 mm
12:57 AM 17.8°F-7.9°C 9.4°F-12.6°C 69% Calm Calm 3.1 mph5.0 kmh 29.79 in1008.8 mb 0.00 in0.0 mm 0.00 in0.0 mm 0.00 in0.0 mm
12:56 AM 17.8°F-7.9°C 9.4°F-12.6°C 69% 0.7 mph WSW1.1 kmh WSW 3.1 mph5.0 kmh 29.79 in1008.8 mb 0.00 in0.0 mm 0.00 in0.0 mm 0.00 in0.0 mm
12:55 AM 17.8°F-7.9°C 9.4°F-12.6°C 69% Calm Calm 3.1 mph5.0 kmh 29.79 in1008.8 mb 0.00 in0.0 mm 0.00 in0.0 mm 0.00 in0.0 mm
12:54 AM 17.8°F-7.9°C 9.4°F-12.6°C 69% Calm Calm 3.1 mph5.0 kmh 29.79 in1008.8 mb 0.00 in0.0 mm 0.00 in0.0 mm 0.00 in0.0 mm
12:53 AM 17.8°F-7.9°C 9.4°F-12.6°C 69% Calm Calm 3.1 mph5.0 kmh 29.78 in1008.5 mb 0.00 in0.0 mm 0.00 in0.0 mm 0.00 in0.0 mm
12:52 AM 17.8°F-7.9°C 9.4°F-12.6°C 69% 0.7 mph WSW1.1 kmh WSW 3.8 mph6.1 kmh 29.79 in1008.8 mb 0.00 in0.0 mm 0.00 in0.0 mm 0.00 in0.0 mm
12:51 AM 17.8°F-7.9°C 9.4°F-12.6°C 69% Calm Calm 3.8 mph6.1 kmh 29.79 in1008.8 mb 0.00 in0.0 mm 0.00 in0.0 mm 0.00 in0.0 mm
12:50 AM 17.8°F-7.9°C 9.4°F-12.6°C 69% Calm Calm 3.8 mph6.1 kmh 29.79 in1008.8 mb 0.00 in0.0 mm 0.00 in0.0 mm 0.00 in0.0 mm
12:49 AM 17.8°F-7.9°C 9.4°F-12.6°C 69% 0.7 mph WSW1.1 kmh WSW 3.8 mph6.1 kmh 29.79 in1008.8 mb 0.00 in0.0 mm 0.00 in0.0 mm 0.00 in0.0 mm
12:48 AM 17.8°F-7.9°C 9.4°F-12.6°C 69% 0.7 mph WSW1.1 kmh WSW 3.8 mph6.1 kmh 29.79 in1008.8 mb 0.00 in0.0 mm 0.00 in0.0 mm 0.00 in0.0 mm
12:47 AM 17.8°F-7.9°C 9.4°F-12.6°C 69% 0.7 mph WSW1.1 kmh WSW 3.8 mph6.1 kmh 29.79 in1008.8 mb 0.00 in0.0 mm 0.00 in0.0 mm 0.00 in0.0 mm
12:46 AM 17.8°F-7.9°C 9.4°F-12.6°C 69% 0.7 mph SW1.1 kmh SW 3.8 mph6.1 kmh 29.79 in1008.8 mb 0.00 in0.0 mm 0.00 in0.0 mm 0.00 in0.0 mm
12:45 AM 17.8°F-7.9°C 9.4°F-12.6°C 69% 0.7 mph SSW1.1 kmh SSW 3.8 mph6.1 kmh 29.79 in1008.8 mb 0.00 in0.0 mm 0.00 in0.0 mm 0.00 in0.0 mm
12:44 AM 17.8°F-7.9°C 9.4°F-12.6°C 69% 0.7 mph S1.1 kmh S 3.8 mph6.1 kmh 29.80 in1009.1 mb 0.00 in0.0 mm 0.00 in0.0 mm 0.00 in0.0 mm
12:43 AM 17.8°F-7.9°C 9.4°F-12.6°C 69% Calm Calm 3.8 mph6.1 kmh 29.79 in1008.8 mb 0.00 in0.0 mm 0.00 in0.0 mm 0.00 in0.0 mm
12:42 AM 17.4°F-8.1°C 9.4°F-12.6°C 70% 1.6 mph SSE2.6 kmh SSE 3.8 mph6.1 kmh 29.78 in1008.5 mb 0.00 in0.0 mm 0.00 in0.0 mm 0.00 in0.0 mm
12:41 AM 17.4°F-8.1°C 9.1°F-12.7°C 69% 1.6 mph S2.6 kmh S 3.1 mph5.0 kmh 29.79 in1008.8 mb 0.00 in0.0 mm 0.00 in0.0 mm 0.00 in0.0 mm
12:40 AM 17.4°F-8.1°C 9.1°F-12.7°C 69% 0.7 mph S1.1 kmh S 1.6 mph2.6 kmh 29.79 in1008.8 mb 0.00 in0.0 mm 0.00 in0.0 mm 0.00 in0.0 mm
12:39 AM 17.4°F-8.1°C 9.1°F-12.7°C 69% 0.7 mph S1.1 kmh S 1.6 mph2.6 kmh 29.80 in1009.1 mb 0.00 in0.0 mm 0.00 in0.0 mm 0.00 in0.0 mm
12:38 AM 17.4°F-8.1°C 9.1°F-12.7°C 69% Calm Calm 1.6 mph2.6 kmh 29.79 in1008.8 mb 0.00 in0.0 mm 0.00 in0.0 mm 0.00 in0.0 mm
12:37 AM 17.4°F-8.1°C 9.1°F-12.7°C 69% Calm Calm 1.6 mph2.6 kmh 29.79 in1008.8 mb 0.00 in0.0 mm 0.00 in0.0 mm 0.00 in0.0 mm
12:36 AM 17.4°F-8.1°C 9.1°F-12.7°C 69% 0.7 mph SW1.1 kmh SW 1.6 mph2.6 kmh 29.79 in1008.8 mb 0.00 in0.0 mm 0.00 in0.0 mm 0.00 in0.0 mm
12:35 AM 17.4°F-8.1°C 9.1°F-12.7°C 69% Calm Calm 1.6 mph2.6 kmh 29.79 in1008.8 mb 0.00 in0.0 mm 0.00 in0.0 mm 0.00 in0.0 mm
12:34 AM 17.4°F-8.1°C 9.1°F-12.7°C 69% Calm Calm 1.6 mph2.6 kmh 29.78 in1008.5 mb 0.00 in0.0 mm 0.00 in0.0 mm 0.00 in0.0 mm
12:33 AM 17.4°F-8.1°C 9.1°F-12.7°C 69% Calm Calm 1.6 mph2.6 kmh 29.79 in1008.8 mb 0.00 in0.0 mm 0.00 in0.0 mm 0.00 in0.0 mm
12:32 AM 17.4°F-8.1°C 9.1°F-12.7°C 69% Calm Calm 1.6 mph2.6 kmh 29.78 in1008.5 mb 0.00 in0.0 mm 0.00 in0.0 mm 0.00 in0.0 mm
12:31 AM 17.4°F-8.1°C 9.1°F-12.7°C 69% Calm Calm 1.6 mph2.6 kmh 29.79 in1008.8 mb 0.00 in0.0 mm 0.00 in0.0 mm 0.00 in0.0 mm
12:30 AM 17.4°F-8.1°C 9.1°F-12.7°C 69% Calm Calm 1.6 mph2.6 kmh 29.79 in1008.8 mb 0.00 in0.0 mm 0.00 in0.0 mm 0.00 in0.0 mm
12:29 AM 17.4°F-8.1°C 9.1°F-12.7°C 69% Calm Calm 1.6 mph2.6 kmh 29.79 in1008.8 mb 0.00 in0.0 mm 0.00 in0.0 mm 0.00 in0.0 mm
12:28 AM 17.4°F-8.1°C 9.1°F-12.7°C 69% Calm Calm 1.6 mph2.6 kmh 29.79 in1008.8 mb 0.00 in0.0 mm 0.00 in0.0 mm 0.00 in0.0 mm
12:27 AM 17.4°F-8.1°C 9.1°F-12.7°C 69% Calm Calm 1.6 mph2.6 kmh 29.79 in1008.8 mb 0.00 in0.0 mm 0.00 in0.0 mm 0.00 in0.0 mm
12:26 AM 17.4°F-8.1°C 9.1°F-12.7°C 69% Calm Calm 0.7 mph1.1 kmh 29.79 in1008.8 mb 0.00 in0.0 mm 0.00 in0.0 mm 0.00 in0.0 mm
12:25 AM 17.4°F-8.1°C 9.1°F-12.7°C 69% Calm Calm 0.7 mph1.1 kmh 29.79 in1008.8 mb 0.00 in0.0 mm 0.00 in0.0 mm 0.00 in0.0 mm
12:24 AM 17.4°F-8.1°C 9.1°F-12.7°C 69% Calm Calm 0.7 mph1.1 kmh 29.78 in1008.5 mb 0.00 in0.0 mm 0.00 in0.0 mm 0.00 in0.0 mm
12:23 AM 17.8°F-7.9°C 9.1°F-12.7°C 68% Calm Calm 2.2 mph3.5 kmh 29.80 in1009.1 mb 0.00 in0.0 mm 0.00 in0.0 mm 0.00 in0.0 mm
12:22 AM 17.8°F-7.9°C 9.1°F-12.7°C 68% Calm Calm 2.2 mph3.5 kmh 29.79 in1008.8 mb 0.00 in0.0 mm 0.00 in0.0 mm 0.00 in0.0 mm
12:21 AM 17.8°F-7.9°C 9.1°F-12.7°C 68% Calm Calm 2.2 mph3.5 kmh 29.79 in1008.8 mb 0.00 in0.0 mm 0.00 in0.0 mm 0.00 in0.0 mm
12:20 AM 17.8°F-7.9°C 9.1°F-12.7°C 68% Calm Calm 2.2 mph3.5 kmh 29.78 in1008.5 mb 0.00 in0.0 mm 0.00 in0.0 mm 0.00 in0.0 mm
12:19 AM 17.8°F-7.9°C 9.1°F-12.7°C 68% Calm Calm 2.2 mph3.5 kmh 29.79 in1008.8 mb 0.00 in0.0 mm 0.00 in0.0 mm 0.00 in0.0 mm
12:18 AM 17.8°F-7.9°C 9.1°F-12.7°C 68% Calm Calm 2.2 mph3.5 kmh 29.78 in1008.5 mb 0.00 in0.0 mm 0.00 in0.0 mm 0.00 in0.0 mm
12:17 AM 17.8°F-7.9°C 9.1°F-12.7°C 68% Calm Calm 2.2 mph3.5 kmh 29.78 in1008.5 mb 0.00 in0.0 mm 0.00 in0.0 mm 0.00 in0.0 mm
12:16 AM 17.8°F-7.9°C 9.1°F-12.7°C 68% Calm Calm 2.2 mph3.5 kmh 29.78 in1008.5 mb 0.00 in0.0 mm 0.00 in0.0 mm 0.00 in0.0 mm
12:15 AM 17.8°F-7.9°C 9.1°F-12.7°C 68% Calm Calm 2.2 mph3.5 kmh 29.78 in1008.5 mb 0.00 in0.0 mm 0.00 in0.0 mm 0.00 in0.0 mm
12:14 AM 17.8°F-7.9°C 9.1°F-12.7°C 68% Calm Calm 2.2 mph3.5 kmh 29.79 in1008.8 mb 0.00 in0.0 mm 0.00 in0.0 mm 0.00 in0.0 mm
12:13 AM 17.8°F-7.9°C 9.1°F-12.7°C 68% Calm Calm 2.2 mph3.5 kmh 29.78 in1008.5 mb 0.00 in0.0 mm 0.00 in0.0 mm 0.00 in0.0 mm
12:12 AM 17.8°F-7.9°C 9.1°F-12.7°C 68% Calm Calm 2.2 mph3.5 kmh 29.79 in1008.8 mb 0.00 in0.0 mm 0.00 in0.0 mm 0.00 in0.0 mm
12:11 AM 17.8°F-7.9°C 9.1°F-12.7°C 68% Calm Calm 2.2 mph3.5 kmh 29.78 in1008.5 mb 0.00 in0.0 mm 0.00 in0.0 mm 0.00 in0.0 mm
12:10 AM 17.8°F-7.9°C 9.1°F-12.7°C 68% Calm Calm 2.2 mph3.5 kmh 29.79 in1008.8 mb 0.00 in0.0 mm 0.00 in0.0 mm 0.00 in0.0 mm
12:09 AM 17.8°F-7.9°C 9.1°F-12.7°C 68% Calm Calm 2.2 mph3.5 kmh 29.79 in1008.8 mb 0.00 in0.0 mm 0.00 in0.0 mm 0.00 in0.0 mm
12:08 AM 18.0°F-7.8°C 8.9°F-12.8°C 67% 0.7 mph SW1.1 kmh SW 2.2 mph3.5 kmh 29.79 in1008.8 mb 0.00 in0.0 mm 0.00 in0.0 mm 0.00 in0.0 mm
12:07 AM 18.0°F-7.8°C 8.9°F-12.8°C 67% 0.7 mph WSW1.1 kmh WSW 2.2 mph3.5 kmh 29.80 in1009.1 mb 0.00 in0.0 mm 0.00 in0.0 mm 0.00 in0.0 mm
12:06 AM 18.0°F-7.8°C 8.9°F-12.8°C 67% 0.7 mph WSW1.1 kmh WSW 2.2 mph3.5 kmh 29.78 in1008.5 mb 0.00 in0.0 mm 0.00 in0.0 mm 0.00 in0.0 mm
12:05 AM 18.0°F-7.8°C 8.9°F-12.8°C 67% 0.7 mph WSW1.1 kmh WSW 2.2 mph3.5 kmh 29.78 in1008.5 mb 0.00 in0.0 mm 0.00 in0.0 mm 0.00 in0.0 mm
12:04 AM 18.0°F-7.8°C 8.9°F-12.8°C 67% 0.7 mph WSW1.1 kmh WSW 2.2 mph3.5 kmh 29.79 in1008.8 mb 0.00 in0.0 mm 0.00 in0.0 mm 0.00 in0.0 mm
12:03 AM 18.0°F-7.8°C 8.9°F-12.8°C 67% 0.7 mph W1.1 kmh W 2.2 mph3.5 kmh 29.79 in1008.8 mb 0.00 in0.0 mm 0.00 in0.0 mm 0.00 in0.0 mm
12:02 AM 18.1°F-7.7°C 9.1°F-12.7°C 67% Calm Calm 1.6 mph2.6 kmh 29.79 in1008.8 mb 0.00 in0.0 mm 0.00 in0.0 mm 0.00 in0.0 mm
12:01 AM 18.1°F-7.7°C 9.1°F-12.7°C 67% Calm Calm 1.6 mph2.6 kmh 29.79 in1008.8 mb 0.00 in0.0 mm 0.00 in0.0 mm 0.00 in0.0 mm
12:00 AM 18.1°F-7.7°C 9.1°F-12.7°C 67% Calm Calm 1.6 mph2.6 kmh 29.79 in1008.8 mb 0.00 in0.0 mm 0.00 in0.0 mm 0.00 in0.0 mm